<?xml version="1.0" encoding="UTF-8" standalone="no" ?>
<gpx xmlns="http://www.topografix.com/GPX/1/1" xmlns:xsi="http://www.w3.org/2001/XMLSchema-instance" xsi:schemaLocation="http://www.topografix.com/GPX/1/1 http://www.topografix.com/GPX/1/1/gpx.xsd" version="1.1" creator="VisuGPX - https://www.visugpx.com">
  <metadata>
    <name>pic de castillon</name>
    <desc><![CDATA[depart en skis  du col de oueil lusent ]]></desc>
  </metadata>
  <trk>
    <name><![CDATA[5 mars 2018]]></name>
    <cmt><![CDATA[09:26:04]]></cmt>
    <desc><![CDATA[comment ...]]></desc>
    <trkseg>
      <trkpt lat="42.99145" lon="0.31703">
        <ele>1239</ele>
        <time>2018-03-05T08:25:39Z</time>
      </trkpt>
      <trkpt lat="42.99146" lon="0.31703">
        <ele>1239</ele>
        <time>2018-03-05T08:25:40Z</time>
      </trkpt>
      <trkpt lat="42.99142" lon="0.31703">
        <ele>1238</ele>
        <time>2018-03-05T08:26:42Z</time>
      </trkpt>
      <trkpt lat="42.99133" lon="0.31704">
        <ele>1234</ele>
        <time>2018-03-05T08:26:53Z</time>
      </trkpt>
      <trkpt lat="42.99128" lon="0.31701">
        <ele>1236</ele>
        <time>2018-03-05T08:27:04Z</time>
      </trkpt>
      <trkpt lat="42.99125" lon="0.317">
        <ele>1236</ele>
        <time>2018-03-05T08:27:08Z</time>
      </trkpt>
      <trkpt lat="42.99123" lon="0.31704">
        <ele>1237</ele>
        <time>2018-03-05T08:27:12Z</time>
      </trkpt>
      <trkpt lat="42.99115" lon="0.31709">
        <ele>1238</ele>
        <time>2018-03-05T08:27:26Z</time>
      </trkpt>
      <trkpt lat="42.99112" lon="0.31709">
        <ele>1239</ele>
        <time>2018-03-05T08:27:29Z</time>
      </trkpt>
      <trkpt lat="42.99102" lon="0.31702">
        <ele>1239</ele>
        <time>2018-03-05T08:27:46Z</time>
      </trkpt>
      <trkpt lat="42.99099" lon="0.31699">
        <ele>1239</ele>
        <time>2018-03-05T08:27:51Z</time>
      </trkpt>
      <trkpt lat="42.99098" lon="0.31695">
        <ele>1240</ele>
        <time>2018-03-05T08:27:59Z</time>
      </trkpt>
      <trkpt lat="42.99095" lon="0.31694">
        <ele>1241</ele>
        <time>2018-03-05T08:28:03Z</time>
      </trkpt>
      <trkpt lat="42.99086" lon="0.31684">
        <ele>1243</ele>
        <time>2018-03-05T08:28:21Z</time>
      </trkpt>
      <trkpt lat="42.99083" lon="0.31677">
        <ele>1244</ele>
        <time>2018-03-05T08:28:33Z</time>
      </trkpt>
      <trkpt lat="42.99081" lon="0.31675">
        <ele>1243</ele>
        <time>2018-03-05T08:28:37Z</time>
      </trkpt>
      <trkpt lat="42.99078" lon="0.31673">
        <ele>1243</ele>
        <time>2018-03-05T08:28:44Z</time>
      </trkpt>
      <trkpt lat="42.99072" lon="0.31669">
        <ele>1245</ele>
        <time>2018-03-05T08:28:56Z</time>
      </trkpt>
      <trkpt lat="42.99069" lon="0.31668">
        <ele>1246</ele>
        <time>2018-03-05T08:29:00Z</time>
      </trkpt>
      <trkpt lat="42.99047" lon="0.3166">
        <ele>1246</ele>
        <time>2018-03-05T08:29:31Z</time>
      </trkpt>
      <trkpt lat="42.99042" lon="0.31658">
        <ele>1247</ele>
        <time>2018-03-05T08:29:39Z</time>
      </trkpt>
      <trkpt lat="42.99036" lon="0.3165">
        <ele>1248</ele>
        <time>2018-03-05T08:29:52Z</time>
      </trkpt>
      <trkpt lat="42.99022" lon="0.3164">
        <ele>1253</ele>
        <time>2018-03-05T08:30:14Z</time>
      </trkpt>
      <trkpt lat="42.9902" lon="0.31638">
        <ele>1254</ele>
        <time>2018-03-05T08:30:28Z</time>
      </trkpt>
      <trkpt lat="42.99015" lon="0.31637">
        <ele>1253</ele>
        <time>2018-03-05T08:31:40Z</time>
      </trkpt>
      <trkpt lat="42.99011" lon="0.31638">
        <ele>1253</ele>
        <time>2018-03-05T08:31:43Z</time>
      </trkpt>
      <trkpt lat="42.99009" lon="0.31638">
        <ele>1253</ele>
        <time>2018-03-05T08:31:49Z</time>
      </trkpt>
      <trkpt lat="42.99006" lon="0.31637">
        <ele>1254</ele>
        <time>2018-03-05T08:32:05Z</time>
      </trkpt>
      <trkpt lat="42.99002" lon="0.31637">
        <ele>1255</ele>
        <time>2018-03-05T08:32:13Z</time>
      </trkpt>
      <trkpt lat="42.98994" lon="0.31638">
        <ele>1261</ele>
        <time>2018-03-05T08:32:48Z</time>
      </trkpt>
      <trkpt lat="42.98999" lon="0.31624">
        <ele>1263</ele>
        <time>2018-03-05T08:33:06Z</time>
      </trkpt>
      <trkpt lat="42.98996" lon="0.31618">
        <ele>1267</ele>
        <time>2018-03-05T08:33:16Z</time>
      </trkpt>
      <trkpt lat="42.98994" lon="0.31616">
        <ele>1267</ele>
        <time>2018-03-05T08:33:21Z</time>
      </trkpt>
      <trkpt lat="42.98985" lon="0.31617">
        <ele>1271</ele>
        <time>2018-03-05T08:33:34Z</time>
      </trkpt>
      <trkpt lat="42.98973" lon="0.31619">
        <ele>1270</ele>
        <time>2018-03-05T08:33:53Z</time>
      </trkpt>
      <trkpt lat="42.9897" lon="0.3162">
        <ele>1271</ele>
        <time>2018-03-05T08:33:58Z</time>
      </trkpt>
      <trkpt lat="42.98967" lon="0.31622">
        <ele>1273</ele>
        <time>2018-03-05T08:34:03Z</time>
      </trkpt>
      <trkpt lat="42.98964" lon="0.31624">
        <ele>1275</ele>
        <time>2018-03-05T08:34:10Z</time>
      </trkpt>
      <trkpt lat="42.98961" lon="0.31625">
        <ele>1275</ele>
        <time>2018-03-05T08:34:14Z</time>
      </trkpt>
      <trkpt lat="42.98959" lon="0.31627">
        <ele>1275</ele>
        <time>2018-03-05T08:34:21Z</time>
      </trkpt>
      <trkpt lat="42.98956" lon="0.31628">
        <ele>1277</ele>
        <time>2018-03-05T08:35:06Z</time>
      </trkpt>
      <trkpt lat="42.98954" lon="0.31628">
        <ele>1280</ele>
        <time>2018-03-05T08:35:48Z</time>
      </trkpt>
      <trkpt lat="42.98951" lon="0.31628">
        <ele>1280</ele>
        <time>2018-03-05T08:35:53Z</time>
      </trkpt>
      <trkpt lat="42.98948" lon="0.31626">
        <ele>1278</ele>
        <time>2018-03-05T08:36:04Z</time>
      </trkpt>
      <trkpt lat="42.98945" lon="0.31627">
        <ele>1276</ele>
        <time>2018-03-05T08:36:13Z</time>
      </trkpt>
      <trkpt lat="42.98942" lon="0.31628">
        <ele>1277</ele>
        <time>2018-03-05T08:36:17Z</time>
      </trkpt>
      <trkpt lat="42.98937" lon="0.31632">
        <ele>1279</ele>
        <time>2018-03-05T08:36:33Z</time>
      </trkpt>
      <trkpt lat="42.98929" lon="0.31634">
        <ele>1284</ele>
        <time>2018-03-05T08:36:51Z</time>
      </trkpt>
      <trkpt lat="42.98923" lon="0.31637">
        <ele>1287</ele>
        <time>2018-03-05T08:37:03Z</time>
      </trkpt>
      <trkpt lat="42.98921" lon="0.31635">
        <ele>1288</ele>
        <time>2018-03-05T08:37:12Z</time>
      </trkpt>
      <trkpt lat="42.98913" lon="0.3164">
        <ele>1290</ele>
        <time>2018-03-05T08:37:46Z</time>
      </trkpt>
      <trkpt lat="42.98913" lon="0.31636">
        <ele>1290</ele>
        <time>2018-03-05T08:37:56Z</time>
      </trkpt>
      <trkpt lat="42.98911" lon="0.31633">
        <ele>1291</ele>
        <time>2018-03-05T08:38:10Z</time>
      </trkpt>
      <trkpt lat="42.98908" lon="0.31634">
        <ele>1291</ele>
        <time>2018-03-05T08:38:14Z</time>
      </trkpt>
      <trkpt lat="42.98906" lon="0.31636">
        <ele>1291</ele>
        <time>2018-03-05T08:38:18Z</time>
      </trkpt>
      <trkpt lat="42.98906" lon="0.3164">
        <ele>1296</ele>
        <time>2018-03-05T08:41:04Z</time>
      </trkpt>
      <trkpt lat="42.98902" lon="0.31642">
        <ele>1296</ele>
        <time>2018-03-05T08:41:11Z</time>
      </trkpt>
      <trkpt lat="42.98895" lon="0.31642">
        <ele>1297</ele>
        <time>2018-03-05T08:41:22Z</time>
      </trkpt>
      <trkpt lat="42.98892" lon="0.31642">
        <ele>1298</ele>
        <time>2018-03-05T08:41:26Z</time>
      </trkpt>
      <trkpt lat="42.98889" lon="0.31642">
        <ele>1299</ele>
        <time>2018-03-05T08:41:36Z</time>
      </trkpt>
      <trkpt lat="42.98881" lon="0.31646">
        <ele>1301</ele>
        <time>2018-03-05T08:42:09Z</time>
      </trkpt>
      <trkpt lat="42.98879" lon="0.31644">
        <ele>1301</ele>
        <time>2018-03-05T08:42:23Z</time>
      </trkpt>
      <trkpt lat="42.98876" lon="0.31646">
        <ele>1303</ele>
        <time>2018-03-05T08:43:02Z</time>
      </trkpt>
      <trkpt lat="42.98874" lon="0.31644">
        <ele>1305</ele>
        <time>2018-03-05T08:43:35Z</time>
      </trkpt>
      <trkpt lat="42.98871" lon="0.31643">
        <ele>1307</ele>
        <time>2018-03-05T08:43:40Z</time>
      </trkpt>
      <trkpt lat="42.98865" lon="0.31644">
        <ele>1309</ele>
        <time>2018-03-05T08:43:54Z</time>
      </trkpt>
      <trkpt lat="42.98863" lon="0.31642">
        <ele>1309</ele>
        <time>2018-03-05T08:43:58Z</time>
      </trkpt>
      <trkpt lat="42.98861" lon="0.31638">
        <ele>1310</ele>
        <time>2018-03-05T08:44:04Z</time>
      </trkpt>
      <trkpt lat="42.98859" lon="0.31635">
        <ele>1310</ele>
        <time>2018-03-05T08:44:12Z</time>
      </trkpt>
      <trkpt lat="42.98851" lon="0.3163">
        <ele>1314</ele>
        <time>2018-03-05T08:44:24Z</time>
      </trkpt>
      <trkpt lat="42.98848" lon="0.3163">
        <ele>1314</ele>
        <time>2018-03-05T08:44:29Z</time>
      </trkpt>
      <trkpt lat="42.98834" lon="0.31622">
        <ele>1316</ele>
        <time>2018-03-05T08:44:56Z</time>
      </trkpt>
      <trkpt lat="42.9883" lon="0.3162">
        <ele>1318</ele>
        <time>2018-03-05T08:45:06Z</time>
      </trkpt>
      <trkpt lat="42.98828" lon="0.31615">
        <ele>1321</ele>
        <time>2018-03-05T08:45:26Z</time>
      </trkpt>
      <trkpt lat="42.98825" lon="0.31613">
        <ele>1321</ele>
        <time>2018-03-05T08:45:30Z</time>
      </trkpt>
      <trkpt lat="42.98823" lon="0.31607">
        <ele>1322</ele>
        <time>2018-03-05T08:45:48Z</time>
      </trkpt>
      <trkpt lat="42.98819" lon="0.31603">
        <ele>1323</ele>
        <time>2018-03-05T08:45:58Z</time>
      </trkpt>
      <trkpt lat="42.98817" lon="0.31606">
        <ele>1327</ele>
        <time>2018-03-05T08:48:16Z</time>
      </trkpt>
      <trkpt lat="42.98814" lon="0.31607">
        <ele>1330</ele>
        <time>2018-03-05T08:48:18Z</time>
      </trkpt>
      <trkpt lat="42.9881" lon="0.31606">
        <ele>1332</ele>
        <time>2018-03-05T08:48:23Z</time>
      </trkpt>
      <trkpt lat="42.9881" lon="0.31601">
        <ele>1333</ele>
        <time>2018-03-05T08:48:46Z</time>
      </trkpt>
      <trkpt lat="42.98806" lon="0.316">
        <ele>1333</ele>
        <time>2018-03-05T08:48:56Z</time>
      </trkpt>
      <trkpt lat="42.98806" lon="0.31595">
        <ele>1336</ele>
        <time>2018-03-05T08:49:16Z</time>
      </trkpt>
      <trkpt lat="42.98801" lon="0.31591">
        <ele>1339</ele>
        <time>2018-03-05T08:49:28Z</time>
      </trkpt>
      <trkpt lat="42.98799" lon="0.31588">
        <ele>1339</ele>
        <time>2018-03-05T08:49:47Z</time>
      </trkpt>
      <trkpt lat="42.98797" lon="0.31589">
        <ele>1338</ele>
        <time>2018-03-05T08:52:06Z</time>
      </trkpt>
      <trkpt lat="42.98782" lon="0.31593">
        <ele>1336</ele>
        <time>2018-03-05T08:52:37Z</time>
      </trkpt>
      <trkpt lat="42.98776" lon="0.31592">
        <ele>1339</ele>
        <time>2018-03-05T08:52:46Z</time>
      </trkpt>
      <trkpt lat="42.98773" lon="0.31591">
        <ele>1338</ele>
        <time>2018-03-05T08:52:52Z</time>
      </trkpt>
      <trkpt lat="42.98766" lon="0.31591">
        <ele>1338</ele>
        <time>2018-03-05T08:53:09Z</time>
      </trkpt>
      <trkpt lat="42.98764" lon="0.3159">
        <ele>1339</ele>
        <time>2018-03-05T08:53:20Z</time>
      </trkpt>
      <trkpt lat="42.98761" lon="0.31591">
        <ele>1339</ele>
        <time>2018-03-05T08:53:24Z</time>
      </trkpt>
      <trkpt lat="42.98758" lon="0.31591">
        <ele>1340</ele>
        <time>2018-03-05T08:53:30Z</time>
      </trkpt>
      <trkpt lat="42.98755" lon="0.31592">
        <ele>1341</ele>
        <time>2018-03-05T08:53:36Z</time>
      </trkpt>
      <trkpt lat="42.98746" lon="0.3159">
        <ele>1345</ele>
        <time>2018-03-05T08:54:02Z</time>
      </trkpt>
      <trkpt lat="42.98743" lon="0.31588">
        <ele>1346</ele>
        <time>2018-03-05T08:54:26Z</time>
      </trkpt>
      <trkpt lat="42.98738" lon="0.31587">
        <ele>1350</ele>
        <time>2018-03-05T08:54:52Z</time>
      </trkpt>
      <trkpt lat="42.98737" lon="0.31592">
        <ele>1355</ele>
        <time>2018-03-05T08:55:24Z</time>
      </trkpt>
      <trkpt lat="42.98739" lon="0.31594">
        <ele>1356</ele>
        <time>2018-03-05T08:55:38Z</time>
      </trkpt>
      <trkpt lat="42.98736" lon="0.31597">
        <ele>1358</ele>
        <time>2018-03-05T08:56:48Z</time>
      </trkpt>
      <trkpt lat="42.98733" lon="0.31596">
        <ele>1360</ele>
        <time>2018-03-05T08:56:52Z</time>
      </trkpt>
      <trkpt lat="42.98722" lon="0.31591">
        <ele>1364</ele>
        <time>2018-03-05T08:57:18Z</time>
      </trkpt>
      <trkpt lat="42.98725" lon="0.31592">
        <ele>1363</ele>
        <time>2018-03-05T08:57:28Z</time>
      </trkpt>
      <trkpt lat="42.98725" lon="0.31597">
        <ele>1363</ele>
        <time>2018-03-05T08:57:36Z</time>
      </trkpt>
      <trkpt lat="42.98729" lon="0.31603">
        <ele>1367</ele>
        <time>2018-03-05T08:57:46Z</time>
      </trkpt>
      <trkpt lat="42.9873" lon="0.31607">
        <ele>1368</ele>
        <time>2018-03-05T08:57:52Z</time>
      </trkpt>
      <trkpt lat="42.98731" lon="0.3161">
        <ele>1370</ele>
        <time>2018-03-05T08:57:59Z</time>
      </trkpt>
      <trkpt lat="42.98732" lon="0.31616">
        <ele>1371</ele>
        <time>2018-03-05T08:58:11Z</time>
      </trkpt>
      <trkpt lat="42.9873" lon="0.31619">
        <ele>1370</ele>
        <time>2018-03-05T08:58:17Z</time>
      </trkpt>
      <trkpt lat="42.98729" lon="0.31627">
        <ele>1374</ele>
        <time>2018-03-05T08:58:38Z</time>
      </trkpt>
      <trkpt lat="42.98727" lon="0.31632">
        <ele>1376</ele>
        <time>2018-03-05T08:58:46Z</time>
      </trkpt>
      <trkpt lat="42.98726" lon="0.31637">
        <ele>1376</ele>
        <time>2018-03-05T08:58:52Z</time>
      </trkpt>
      <trkpt lat="42.98724" lon="0.31647">
        <ele>1375</ele>
        <time>2018-03-05T08:59:07Z</time>
      </trkpt>
      <trkpt lat="42.98721" lon="0.31656">
        <ele>1380</ele>
        <time>2018-03-05T08:59:58Z</time>
      </trkpt>
      <trkpt lat="42.98714" lon="0.31657">
        <ele>1382</ele>
        <time>2018-03-05T09:00:12Z</time>
      </trkpt>
      <trkpt lat="42.98711" lon="0.3166">
        <ele>1383</ele>
        <time>2018-03-05T09:00:20Z</time>
      </trkpt>
      <trkpt lat="42.98707" lon="0.31659">
        <ele>1385</ele>
        <time>2018-03-05T09:00:28Z</time>
      </trkpt>
      <trkpt lat="42.98703" lon="0.31657">
        <ele>1386</ele>
        <time>2018-03-05T09:00:43Z</time>
      </trkpt>
      <trkpt lat="42.98701" lon="0.31661">
        <ele>1388</ele>
        <time>2018-03-05T09:01:51Z</time>
      </trkpt>
      <trkpt lat="42.98698" lon="0.31659">
        <ele>1388</ele>
        <time>2018-03-05T09:01:59Z</time>
      </trkpt>
      <trkpt lat="42.98694" lon="0.31659">
        <ele>1388</ele>
        <time>2018-03-05T09:02:05Z</time>
      </trkpt>
      <trkpt lat="42.98683" lon="0.31662">
        <ele>1389</ele>
        <time>2018-03-05T09:02:19Z</time>
      </trkpt>
      <trkpt lat="42.9868" lon="0.31658">
        <ele>1387</ele>
        <time>2018-03-05T09:02:34Z</time>
      </trkpt>
      <trkpt lat="42.98676" lon="0.31658">
        <ele>1387</ele>
        <time>2018-03-05T09:02:45Z</time>
      </trkpt>
      <trkpt lat="42.98671" lon="0.31659">
        <ele>1388</ele>
        <time>2018-03-05T09:02:50Z</time>
      </trkpt>
      <trkpt lat="42.98667" lon="0.31658">
        <ele>1390</ele>
        <time>2018-03-05T09:03:02Z</time>
      </trkpt>
      <trkpt lat="42.98658" lon="0.31661">
        <ele>1398</ele>
        <time>2018-03-05T09:03:26Z</time>
      </trkpt>
      <trkpt lat="42.98653" lon="0.31662">
        <ele>1398</ele>
        <time>2018-03-05T09:03:34Z</time>
      </trkpt>
      <trkpt lat="42.98649" lon="0.31662">
        <ele>1398</ele>
        <time>2018-03-05T09:03:45Z</time>
      </trkpt>
      <trkpt lat="42.98645" lon="0.31658">
        <ele>1398</ele>
        <time>2018-03-05T09:03:56Z</time>
      </trkpt>
      <trkpt lat="42.98639" lon="0.31659">
        <ele>1393</ele>
        <time>2018-03-05T09:04:15Z</time>
      </trkpt>
      <trkpt lat="42.98632" lon="0.31658">
        <ele>1394</ele>
        <time>2018-03-05T09:04:22Z</time>
      </trkpt>
      <trkpt lat="42.98623" lon="0.31656">
        <ele>1394</ele>
        <time>2018-03-05T09:04:32Z</time>
      </trkpt>
      <trkpt lat="42.98618" lon="0.31652">
        <ele>1394</ele>
        <time>2018-03-05T09:04:45Z</time>
      </trkpt>
      <trkpt lat="42.98614" lon="0.31647">
        <ele>1394</ele>
        <time>2018-03-05T09:04:51Z</time>
      </trkpt>
      <trkpt lat="42.98611" lon="0.31643">
        <ele>1394</ele>
        <time>2018-03-05T09:04:58Z</time>
      </trkpt>
      <trkpt lat="42.98606" lon="0.31641">
        <ele>1392</ele>
        <time>2018-03-05T09:05:04Z</time>
      </trkpt>
      <trkpt lat="42.986" lon="0.31634">
        <ele>1389</ele>
        <time>2018-03-05T09:05:17Z</time>
      </trkpt>
      <trkpt lat="42.98594" lon="0.31628">
        <ele>1388</ele>
        <time>2018-03-05T09:05:27Z</time>
      </trkpt>
      <trkpt lat="42.98588" lon="0.31626">
        <ele>1388</ele>
        <time>2018-03-05T09:05:34Z</time>
      </trkpt>
      <trkpt lat="42.98585" lon="0.31624">
        <ele>1389</ele>
        <time>2018-03-05T09:05:38Z</time>
      </trkpt>
      <trkpt lat="42.98578" lon="0.31618">
        <ele>1387</ele>
        <time>2018-03-05T09:05:47Z</time>
      </trkpt>
      <trkpt lat="42.98573" lon="0.31619">
        <ele>1388</ele>
        <time>2018-03-05T09:05:50Z</time>
      </trkpt>
      <trkpt lat="42.9857" lon="0.31616">
        <ele>1387</ele>
        <time>2018-03-05T09:05:57Z</time>
      </trkpt>
      <trkpt lat="42.98566" lon="0.31612">
        <ele>1387</ele>
        <time>2018-03-05T09:06:02Z</time>
      </trkpt>
      <trkpt lat="42.98564" lon="0.3161">
        <ele>1386</ele>
        <time>2018-03-05T09:06:05Z</time>
      </trkpt>
      <trkpt lat="42.98564" lon="0.31606">
        <ele>1387</ele>
        <time>2018-03-05T09:06:12Z</time>
      </trkpt>
      <trkpt lat="42.98553" lon="0.316">
        <ele>1389</ele>
        <time>2018-03-05T09:06:38Z</time>
      </trkpt>
      <trkpt lat="42.98548" lon="0.31596">
        <ele>1389</ele>
        <time>2018-03-05T09:06:47Z</time>
      </trkpt>
      <trkpt lat="42.98546" lon="0.31593">
        <ele>1389</ele>
        <time>2018-03-05T09:06:58Z</time>
      </trkpt>
      <trkpt lat="42.98545" lon="0.3159">
        <ele>1389</ele>
        <time>2018-03-05T09:07:02Z</time>
      </trkpt>
      <trkpt lat="42.98542" lon="0.3159">
        <ele>1390</ele>
        <time>2018-03-05T09:07:28Z</time>
      </trkpt>
      <trkpt lat="42.9854" lon="0.31587">
        <ele>1393</ele>
        <time>2018-03-05T09:08:13Z</time>
      </trkpt>
      <trkpt lat="42.9854" lon="0.31585">
        <ele>1393</ele>
        <time>2018-03-05T09:14:42Z</time>
      </trkpt>
      <trkpt lat="42.98537" lon="0.31584">
        <ele>1395</ele>
        <time>2018-03-05T09:14:46Z</time>
      </trkpt>
      <trkpt lat="42.98521" lon="0.31581">
        <ele>1396</ele>
        <time>2018-03-05T09:15:05Z</time>
      </trkpt>
      <trkpt lat="42.98518" lon="0.31583">
        <ele>1396</ele>
        <time>2018-03-05T09:15:11Z</time>
      </trkpt>
      <trkpt lat="42.98511" lon="0.31589">
        <ele>1400</ele>
        <time>2018-03-05T09:15:28Z</time>
      </trkpt>
      <trkpt lat="42.98508" lon="0.3159">
        <ele>1400</ele>
        <time>2018-03-05T09:15:33Z</time>
      </trkpt>
      <trkpt lat="42.98496" lon="0.3159">
        <ele>1401</ele>
        <time>2018-03-05T09:15:53Z</time>
      </trkpt>
      <trkpt lat="42.98488" lon="0.3159">
        <ele>1402</ele>
        <time>2018-03-05T09:16:09Z</time>
      </trkpt>
      <trkpt lat="42.98485" lon="0.31588">
        <ele>1403</ele>
        <time>2018-03-05T09:16:14Z</time>
      </trkpt>
      <trkpt lat="42.98483" lon="0.31586">
        <ele>1404</ele>
        <time>2018-03-05T09:16:20Z</time>
      </trkpt>
      <trkpt lat="42.98481" lon="0.31589">
        <ele>1404</ele>
        <time>2018-03-05T09:16:45Z</time>
      </trkpt>
      <trkpt lat="42.98471" lon="0.31604">
        <ele>1408</ele>
        <time>2018-03-05T09:17:11Z</time>
      </trkpt>
      <trkpt lat="42.98469" lon="0.31601">
        <ele>1408</ele>
        <time>2018-03-05T09:17:18Z</time>
      </trkpt>
      <trkpt lat="42.98466" lon="0.31601">
        <ele>1410</ele>
        <time>2018-03-05T09:17:28Z</time>
      </trkpt>
      <trkpt lat="42.98462" lon="0.31607">
        <ele>1411</ele>
        <time>2018-03-05T09:17:43Z</time>
      </trkpt>
      <trkpt lat="42.9846" lon="0.31609">
        <ele>1411</ele>
        <time>2018-03-05T09:17:54Z</time>
      </trkpt>
      <trkpt lat="42.98458" lon="0.31606">
        <ele>1411</ele>
        <time>2018-03-05T09:18:02Z</time>
      </trkpt>
      <trkpt lat="42.98456" lon="0.31602">
        <ele>1412</ele>
        <time>2018-03-05T09:18:10Z</time>
      </trkpt>
      <trkpt lat="42.98453" lon="0.31587">
        <ele>1416</ele>
        <time>2018-03-05T09:18:39Z</time>
      </trkpt>
      <trkpt lat="42.98444" lon="0.31572">
        <ele>1422</ele>
        <time>2018-03-05T09:19:15Z</time>
      </trkpt>
      <trkpt lat="42.98442" lon="0.31569">
        <ele>1422</ele>
        <time>2018-03-05T09:19:27Z</time>
      </trkpt>
      <trkpt lat="42.9844" lon="0.31572">
        <ele>1424</ele>
        <time>2018-03-05T09:19:38Z</time>
      </trkpt>
      <trkpt lat="42.98438" lon="0.31579">
        <ele>1425</ele>
        <time>2018-03-05T09:19:56Z</time>
      </trkpt>
      <trkpt lat="42.98435" lon="0.31578">
        <ele>1425</ele>
        <time>2018-03-05T09:20:01Z</time>
      </trkpt>
      <trkpt lat="42.98433" lon="0.31575">
        <ele>1426</ele>
        <time>2018-03-05T09:20:07Z</time>
      </trkpt>
      <trkpt lat="42.98432" lon="0.31571">
        <ele>1427</ele>
        <time>2018-03-05T09:20:13Z</time>
      </trkpt>
      <trkpt lat="42.98429" lon="0.31569">
        <ele>1427</ele>
        <time>2018-03-05T09:20:20Z</time>
      </trkpt>
      <trkpt lat="42.98427" lon="0.31565">
        <ele>1428</ele>
        <time>2018-03-05T09:20:29Z</time>
      </trkpt>
      <trkpt lat="42.98425" lon="0.31566">
        <ele>1430</ele>
        <time>2018-03-05T09:20:45Z</time>
      </trkpt>
      <trkpt lat="42.98425" lon="0.3157">
        <ele>1430</ele>
        <time>2018-03-05T09:20:52Z</time>
      </trkpt>
      <trkpt lat="42.98422" lon="0.31581">
        <ele>1432</ele>
        <time>2018-03-05T09:21:19Z</time>
      </trkpt>
      <trkpt lat="42.98416" lon="0.31599">
        <ele>1436</ele>
        <time>2018-03-05T09:21:58Z</time>
      </trkpt>
      <trkpt lat="42.98413" lon="0.31598">
        <ele>1437</ele>
        <time>2018-03-05T09:22:07Z</time>
      </trkpt>
      <trkpt lat="42.98411" lon="0.31594">
        <ele>1438</ele>
        <time>2018-03-05T09:22:12Z</time>
      </trkpt>
      <trkpt lat="42.9841" lon="0.31591">
        <ele>1438</ele>
        <time>2018-03-05T09:22:20Z</time>
      </trkpt>
      <trkpt lat="42.98409" lon="0.31587">
        <ele>1439</ele>
        <time>2018-03-05T09:22:27Z</time>
      </trkpt>
      <trkpt lat="42.98407" lon="0.31584">
        <ele>1439</ele>
        <time>2018-03-05T09:22:41Z</time>
      </trkpt>
      <trkpt lat="42.98404" lon="0.31585">
        <ele>1440</ele>
        <time>2018-03-05T09:22:55Z</time>
      </trkpt>
      <trkpt lat="42.98402" lon="0.31597">
        <ele>1442</ele>
        <time>2018-03-05T09:23:13Z</time>
      </trkpt>
      <trkpt lat="42.98401" lon="0.31601">
        <ele>1443</ele>
        <time>2018-03-05T09:23:22Z</time>
      </trkpt>
      <trkpt lat="42.98399" lon="0.31605">
        <ele>1445</ele>
        <time>2018-03-05T09:23:34Z</time>
      </trkpt>
      <trkpt lat="42.98397" lon="0.31607">
        <ele>1445</ele>
        <time>2018-03-05T09:23:44Z</time>
      </trkpt>
      <trkpt lat="42.98396" lon="0.31603">
        <ele>1445</ele>
        <time>2018-03-05T09:23:52Z</time>
      </trkpt>
      <trkpt lat="42.98394" lon="0.316">
        <ele>1446</ele>
        <time>2018-03-05T09:23:58Z</time>
      </trkpt>
      <trkpt lat="42.9839" lon="0.31581">
        <ele>1450</ele>
        <time>2018-03-05T09:24:35Z</time>
      </trkpt>
      <trkpt lat="42.98389" lon="0.31574">
        <ele>1452</ele>
        <time>2018-03-05T09:25:00Z</time>
      </trkpt>
      <trkpt lat="42.98387" lon="0.31571">
        <ele>1453</ele>
        <time>2018-03-05T09:25:08Z</time>
      </trkpt>
      <trkpt lat="42.98384" lon="0.31564">
        <ele>1455</ele>
        <time>2018-03-05T09:25:29Z</time>
      </trkpt>
      <trkpt lat="42.98381" lon="0.31562">
        <ele>1457</ele>
        <time>2018-03-05T09:26:48Z</time>
      </trkpt>
      <trkpt lat="42.98381" lon="0.31566">
        <ele>1457</ele>
        <time>2018-03-05T09:26:58Z</time>
      </trkpt>
      <trkpt lat="42.98379" lon="0.31569">
        <ele>1460</ele>
        <time>2018-03-05T09:27:05Z</time>
      </trkpt>
      <trkpt lat="42.98376" lon="0.31576">
        <ele>1462</ele>
        <time>2018-03-05T09:27:40Z</time>
      </trkpt>
      <trkpt lat="42.98375" lon="0.3158">
        <ele>1462</ele>
        <time>2018-03-05T09:28:21Z</time>
      </trkpt>
      <trkpt lat="42.98374" lon="0.31583">
        <ele>1464</ele>
        <time>2018-03-05T09:28:32Z</time>
      </trkpt>
      <trkpt lat="42.98369" lon="0.31573">
        <ele>1466</ele>
        <time>2018-03-05T09:29:03Z</time>
      </trkpt>
      <trkpt lat="42.98368" lon="0.3157">
        <ele>1467</ele>
        <time>2018-03-05T09:29:09Z</time>
      </trkpt>
      <trkpt lat="42.98366" lon="0.31566">
        <ele>1468</ele>
        <time>2018-03-05T09:29:15Z</time>
      </trkpt>
      <trkpt lat="42.98366" lon="0.31562">
        <ele>1468</ele>
        <time>2018-03-05T09:29:21Z</time>
      </trkpt>
      <trkpt lat="42.98362" lon="0.31547">
        <ele>1470</ele>
        <time>2018-03-05T09:30:01Z</time>
      </trkpt>
      <trkpt lat="42.98359" lon="0.3155">
        <ele>1471</ele>
        <time>2018-03-05T09:30:54Z</time>
      </trkpt>
      <trkpt lat="42.98357" lon="0.31553">
        <ele>1472</ele>
        <time>2018-03-05T09:31:03Z</time>
      </trkpt>
      <trkpt lat="42.98354" lon="0.31564">
        <ele>1475</ele>
        <time>2018-03-05T09:31:33Z</time>
      </trkpt>
      <trkpt lat="42.9835" lon="0.31579">
        <ele>1481</ele>
        <time>2018-03-05T09:32:06Z</time>
      </trkpt>
      <trkpt lat="42.98349" lon="0.31583">
        <ele>1481</ele>
        <time>2018-03-05T09:32:33Z</time>
      </trkpt>
      <trkpt lat="42.98346" lon="0.31583">
        <ele>1482</ele>
        <time>2018-03-05T09:33:33Z</time>
      </trkpt>
      <trkpt lat="42.98344" lon="0.31586">
        <ele>1483</ele>
        <time>2018-03-05T09:34:01Z</time>
      </trkpt>
      <trkpt lat="42.98345" lon="0.3159">
        <ele>1483</ele>
        <time>2018-03-05T09:34:23Z</time>
      </trkpt>
      <trkpt lat="42.98338" lon="0.31603">
        <ele>1487</ele>
        <time>2018-03-05T09:34:48Z</time>
      </trkpt>
      <trkpt lat="42.98337" lon="0.31603">
        <ele>1488</ele>
        <time>2018-03-05T09:35:34Z</time>
      </trkpt>
      <trkpt lat="42.98331" lon="0.31589">
        <ele>1491</ele>
        <time>2018-03-05T09:36:01Z</time>
      </trkpt>
      <trkpt lat="42.9833" lon="0.31587">
        <ele>1492</ele>
        <time>2018-03-05T09:37:09Z</time>
      </trkpt>
      <trkpt lat="42.98328" lon="0.31591">
        <ele>1493</ele>
        <time>2018-03-05T09:37:16Z</time>
      </trkpt>
      <trkpt lat="42.98326" lon="0.31596">
        <ele>1495</ele>
        <time>2018-03-05T09:37:22Z</time>
      </trkpt>
      <trkpt lat="42.98324" lon="0.31602">
        <ele>1496</ele>
        <time>2018-03-05T09:37:31Z</time>
      </trkpt>
      <trkpt lat="42.98322" lon="0.31606">
        <ele>1496</ele>
        <time>2018-03-05T09:37:36Z</time>
      </trkpt>
      <trkpt lat="42.98321" lon="0.3161">
        <ele>1496</ele>
        <time>2018-03-05T09:37:43Z</time>
      </trkpt>
      <trkpt lat="42.98319" lon="0.31618">
        <ele>1501</ele>
        <time>2018-03-05T09:38:04Z</time>
      </trkpt>
      <trkpt lat="42.98316" lon="0.31625">
        <ele>1505</ele>
        <time>2018-03-05T09:38:28Z</time>
      </trkpt>
      <trkpt lat="42.98315" lon="0.31628">
        <ele>1506</ele>
        <time>2018-03-05T09:38:49Z</time>
      </trkpt>
      <trkpt lat="42.98313" lon="0.31632">
        <ele>1506</ele>
        <time>2018-03-05T09:39:16Z</time>
      </trkpt>
      <trkpt lat="42.98311" lon="0.31628">
        <ele>1506</ele>
        <time>2018-03-05T09:39:42Z</time>
      </trkpt>
      <trkpt lat="42.98309" lon="0.31612">
        <ele>1507</ele>
        <time>2018-03-05T09:40:16Z</time>
      </trkpt>
      <trkpt lat="42.98308" lon="0.31608">
        <ele>1508</ele>
        <time>2018-03-05T09:40:22Z</time>
      </trkpt>
      <trkpt lat="42.98308" lon="0.31604">
        <ele>1508</ele>
        <time>2018-03-05T09:40:33Z</time>
      </trkpt>
      <trkpt lat="42.98307" lon="0.31601">
        <ele>1508</ele>
        <time>2018-03-05T09:40:41Z</time>
      </trkpt>
      <trkpt lat="42.98304" lon="0.31586">
        <ele>1512</ele>
        <time>2018-03-05T09:41:07Z</time>
      </trkpt>
      <trkpt lat="42.98302" lon="0.31582">
        <ele>1512</ele>
        <time>2018-03-05T09:41:16Z</time>
      </trkpt>
      <trkpt lat="42.98303" lon="0.31578">
        <ele>1513</ele>
        <time>2018-03-05T09:41:29Z</time>
      </trkpt>
      <trkpt lat="42.98301" lon="0.31571">
        <ele>1515</ele>
        <time>2018-03-05T09:41:46Z</time>
      </trkpt>
      <trkpt lat="42.983" lon="0.31567">
        <ele>1516</ele>
        <time>2018-03-05T09:41:58Z</time>
      </trkpt>
      <trkpt lat="42.98297" lon="0.31567">
        <ele>1517</ele>
        <time>2018-03-05T09:42:33Z</time>
      </trkpt>
      <trkpt lat="42.98296" lon="0.31571">
        <ele>1517</ele>
        <time>2018-03-05T09:42:40Z</time>
      </trkpt>
      <trkpt lat="42.98296" lon="0.31575">
        <ele>1518</ele>
        <time>2018-03-05T09:42:45Z</time>
      </trkpt>
      <trkpt lat="42.98289" lon="0.31589">
        <ele>1521</ele>
        <time>2018-03-05T09:43:15Z</time>
      </trkpt>
      <trkpt lat="42.98285" lon="0.31599">
        <ele>1525</ele>
        <time>2018-03-05T09:43:39Z</time>
      </trkpt>
      <trkpt lat="42.98283" lon="0.31603">
        <ele>1526</ele>
        <time>2018-03-05T09:44:25Z</time>
      </trkpt>
      <trkpt lat="42.98281" lon="0.31599">
        <ele>1527</ele>
        <time>2018-03-05T09:44:51Z</time>
      </trkpt>
      <trkpt lat="42.98281" lon="0.31596">
        <ele>1527</ele>
        <time>2018-03-05T09:44:57Z</time>
      </trkpt>
      <trkpt lat="42.9828" lon="0.31592">
        <ele>1529</ele>
        <time>2018-03-05T09:45:03Z</time>
      </trkpt>
      <trkpt lat="42.98279" lon="0.31588">
        <ele>1530</ele>
        <time>2018-03-05T09:45:18Z</time>
      </trkpt>
      <trkpt lat="42.98278" lon="0.31585">
        <ele>1530</ele>
        <time>2018-03-05T09:45:30Z</time>
      </trkpt>
      <trkpt lat="42.98276" lon="0.31582">
        <ele>1530</ele>
        <time>2018-03-05T09:46:06Z</time>
      </trkpt>
      <trkpt lat="42.98276" lon="0.31578">
        <ele>1532</ele>
        <time>2018-03-05T09:46:11Z</time>
      </trkpt>
      <trkpt lat="42.98276" lon="0.31574">
        <ele>1532</ele>
        <time>2018-03-05T09:46:16Z</time>
      </trkpt>
      <trkpt lat="42.98275" lon="0.31571">
        <ele>1533</ele>
        <time>2018-03-05T09:46:30Z</time>
      </trkpt>
      <trkpt lat="42.98272" lon="0.31568">
        <ele>1533</ele>
        <time>2018-03-05T09:46:36Z</time>
      </trkpt>
      <trkpt lat="42.9827" lon="0.31571">
        <ele>1534</ele>
        <time>2018-03-05T09:46:47Z</time>
      </trkpt>
      <trkpt lat="42.98268" lon="0.3157">
        <ele>1537</ele>
        <time>2018-03-05T09:46:57Z</time>
      </trkpt>
      <trkpt lat="42.98265" lon="0.31568">
        <ele>1538</ele>
        <time>2018-03-05T09:47:09Z</time>
      </trkpt>
      <trkpt lat="42.98257" lon="0.31564">
        <ele>1542</ele>
        <time>2018-03-05T09:47:59Z</time>
      </trkpt>
      <trkpt lat="42.98254" lon="0.31562">
        <ele>1542</ele>
        <time>2018-03-05T09:48:04Z</time>
      </trkpt>
      <trkpt lat="42.98242" lon="0.31554">
        <ele>1545</ele>
        <time>2018-03-05T09:48:29Z</time>
      </trkpt>
      <trkpt lat="42.98241" lon="0.31558">
        <ele>1546</ele>
        <time>2018-03-05T09:48:46Z</time>
      </trkpt>
      <trkpt lat="42.98243" lon="0.31562">
        <ele>1546</ele>
        <time>2018-03-05T09:48:50Z</time>
      </trkpt>
      <trkpt lat="42.98243" lon="0.3157">
        <ele>1547</ele>
        <time>2018-03-05T09:49:01Z</time>
      </trkpt>
      <trkpt lat="42.98242" lon="0.31577">
        <ele>1550</ele>
        <time>2018-03-05T09:49:16Z</time>
      </trkpt>
      <trkpt lat="42.9824" lon="0.3158">
        <ele>1552</ele>
        <time>2018-03-05T09:49:22Z</time>
      </trkpt>
      <trkpt lat="42.98239" lon="0.31584">
        <ele>1553</ele>
        <time>2018-03-05T09:50:02Z</time>
      </trkpt>
      <trkpt lat="42.98238" lon="0.31587">
        <ele>1554</ele>
        <time>2018-03-05T09:50:06Z</time>
      </trkpt>
      <trkpt lat="42.98235" lon="0.31589">
        <ele>1554</ele>
        <time>2018-03-05T09:50:12Z</time>
      </trkpt>
      <trkpt lat="42.98233" lon="0.31593">
        <ele>1556</ele>
        <time>2018-03-05T09:50:19Z</time>
      </trkpt>
      <trkpt lat="42.98231" lon="0.31594">
        <ele>1557</ele>
        <time>2018-03-05T09:50:24Z</time>
      </trkpt>
      <trkpt lat="42.98227" lon="0.31588">
        <ele>1558</ele>
        <time>2018-03-05T09:50:54Z</time>
      </trkpt>
      <trkpt lat="42.98224" lon="0.31585">
        <ele>1558</ele>
        <time>2018-03-05T09:51:02Z</time>
      </trkpt>
      <trkpt lat="42.98221" lon="0.31584">
        <ele>1559</ele>
        <time>2018-03-05T09:51:10Z</time>
      </trkpt>
      <trkpt lat="42.98219" lon="0.31582">
        <ele>1559</ele>
        <time>2018-03-05T09:51:15Z</time>
      </trkpt>
      <trkpt lat="42.98216" lon="0.31581">
        <ele>1560</ele>
        <time>2018-03-05T09:51:20Z</time>
      </trkpt>
      <trkpt lat="42.9821" lon="0.31572">
        <ele>1562</ele>
        <time>2018-03-05T09:51:35Z</time>
      </trkpt>
      <trkpt lat="42.98208" lon="0.3157">
        <ele>1563</ele>
        <time>2018-03-05T09:51:40Z</time>
      </trkpt>
      <trkpt lat="42.98205" lon="0.31568">
        <ele>1564</ele>
        <time>2018-03-05T09:54:34Z</time>
      </trkpt>
      <trkpt lat="42.98202" lon="0.31567">
        <ele>1565</ele>
        <time>2018-03-05T10:03:51Z</time>
      </trkpt>
      <trkpt lat="42.982" lon="0.31565">
        <ele>1566</ele>
        <time>2018-03-05T10:03:56Z</time>
      </trkpt>
      <trkpt lat="42.98198" lon="0.31562">
        <ele>1564</ele>
        <time>2018-03-05T10:04:26Z</time>
      </trkpt>
      <trkpt lat="42.98195" lon="0.31558">
        <ele>1564</ele>
        <time>2018-03-05T10:04:34Z</time>
      </trkpt>
      <trkpt lat="42.98193" lon="0.31555">
        <ele>1563</ele>
        <time>2018-03-05T10:04:41Z</time>
      </trkpt>
      <trkpt lat="42.98189" lon="0.31549">
        <ele>1563</ele>
        <time>2018-03-05T10:04:52Z</time>
      </trkpt>
      <trkpt lat="42.98184" lon="0.31546">
        <ele>1564</ele>
        <time>2018-03-05T10:05:01Z</time>
      </trkpt>
      <trkpt lat="42.98181" lon="0.31545">
        <ele>1563</ele>
        <time>2018-03-05T10:05:05Z</time>
      </trkpt>
      <trkpt lat="42.9818" lon="0.31542">
        <ele>1564</ele>
        <time>2018-03-05T10:05:14Z</time>
      </trkpt>
      <trkpt lat="42.9818" lon="0.31538">
        <ele>1564</ele>
        <time>2018-03-05T10:05:22Z</time>
      </trkpt>
      <trkpt lat="42.9818" lon="0.31534">
        <ele>1564</ele>
        <time>2018-03-05T10:05:28Z</time>
      </trkpt>
      <trkpt lat="42.98174" lon="0.31531">
        <ele>1566</ele>
        <time>2018-03-05T10:05:39Z</time>
      </trkpt>
      <trkpt lat="42.98169" lon="0.31534">
        <ele>1568</ele>
        <time>2018-03-05T10:05:53Z</time>
      </trkpt>
      <trkpt lat="42.98166" lon="0.31535">
        <ele>1569</ele>
        <time>2018-03-05T10:06:02Z</time>
      </trkpt>
      <trkpt lat="42.98163" lon="0.31535">
        <ele>1571</ele>
        <time>2018-03-05T10:06:17Z</time>
      </trkpt>
      <trkpt lat="42.98161" lon="0.31534">
        <ele>1571</ele>
        <time>2018-03-05T10:06:34Z</time>
      </trkpt>
      <trkpt lat="42.98153" lon="0.31527">
        <ele>1575</ele>
        <time>2018-03-05T10:06:59Z</time>
      </trkpt>
      <trkpt lat="42.98152" lon="0.31524">
        <ele>1575</ele>
        <time>2018-03-05T10:07:07Z</time>
      </trkpt>
      <trkpt lat="42.98152" lon="0.3152">
        <ele>1575</ele>
        <time>2018-03-05T10:07:14Z</time>
      </trkpt>
      <trkpt lat="42.98153" lon="0.31509">
        <ele>1576</ele>
        <time>2018-03-05T10:07:32Z</time>
      </trkpt>
      <trkpt lat="42.9815" lon="0.31507">
        <ele>1576</ele>
        <time>2018-03-05T10:07:41Z</time>
      </trkpt>
      <trkpt lat="42.98148" lon="0.31507">
        <ele>1578</ele>
        <time>2018-03-05T10:07:51Z</time>
      </trkpt>
      <trkpt lat="42.98145" lon="0.31508">
        <ele>1579</ele>
        <time>2018-03-05T10:07:58Z</time>
      </trkpt>
      <trkpt lat="42.98139" lon="0.31509">
        <ele>1580</ele>
        <time>2018-03-05T10:08:15Z</time>
      </trkpt>
      <trkpt lat="42.98134" lon="0.31508">
        <ele>1582</ele>
        <time>2018-03-05T10:08:34Z</time>
      </trkpt>
      <trkpt lat="42.98128" lon="0.31508">
        <ele>1584</ele>
        <time>2018-03-05T10:08:48Z</time>
      </trkpt>
      <trkpt lat="42.98122" lon="0.31508">
        <ele>1584</ele>
        <time>2018-03-05T10:09:02Z</time>
      </trkpt>
      <trkpt lat="42.98119" lon="0.31508">
        <ele>1585</ele>
        <time>2018-03-05T10:09:14Z</time>
      </trkpt>
      <trkpt lat="42.9811" lon="0.31508">
        <ele>1588</ele>
        <time>2018-03-05T10:09:46Z</time>
      </trkpt>
      <trkpt lat="42.98108" lon="0.31507">
        <ele>1588</ele>
        <time>2018-03-05T10:09:51Z</time>
      </trkpt>
      <trkpt lat="42.981" lon="0.31505">
        <ele>1592</ele>
        <time>2018-03-05T10:10:14Z</time>
      </trkpt>
      <trkpt lat="42.98094" lon="0.31505">
        <ele>1593</ele>
        <time>2018-03-05T10:10:32Z</time>
      </trkpt>
      <trkpt lat="42.98082" lon="0.31507">
        <ele>1598</ele>
        <time>2018-03-05T10:11:06Z</time>
      </trkpt>
      <trkpt lat="42.98079" lon="0.31506">
        <ele>1598</ele>
        <time>2018-03-05T10:11:11Z</time>
      </trkpt>
      <trkpt lat="42.98065" lon="0.315">
        <ele>1600</ele>
        <time>2018-03-05T10:11:43Z</time>
      </trkpt>
      <trkpt lat="42.98062" lon="0.315">
        <ele>1601</ele>
        <time>2018-03-05T10:11:50Z</time>
      </trkpt>
      <trkpt lat="42.98059" lon="0.315">
        <ele>1602</ele>
        <time>2018-03-05T10:11:58Z</time>
      </trkpt>
      <trkpt lat="42.98056" lon="0.31499">
        <ele>1603</ele>
        <time>2018-03-05T10:12:08Z</time>
      </trkpt>
      <trkpt lat="42.98054" lon="0.31496">
        <ele>1604</ele>
        <time>2018-03-05T10:12:16Z</time>
      </trkpt>
      <trkpt lat="42.98046" lon="0.31492">
        <ele>1608</ele>
        <time>2018-03-05T10:12:44Z</time>
      </trkpt>
      <trkpt lat="42.98041" lon="0.31489">
        <ele>1610</ele>
        <time>2018-03-05T10:13:00Z</time>
      </trkpt>
      <trkpt lat="42.98039" lon="0.31487">
        <ele>1611</ele>
        <time>2018-03-05T10:13:09Z</time>
      </trkpt>
      <trkpt lat="42.98036" lon="0.31486">
        <ele>1614</ele>
        <time>2018-03-05T10:13:20Z</time>
      </trkpt>
      <trkpt lat="42.98028" lon="0.31479">
        <ele>1618</ele>
        <time>2018-03-05T10:14:02Z</time>
      </trkpt>
      <trkpt lat="42.98025" lon="0.31482">
        <ele>1620</ele>
        <time>2018-03-05T10:14:07Z</time>
      </trkpt>
      <trkpt lat="42.98024" lon="0.31486">
        <ele>1620</ele>
        <time>2018-03-05T10:14:12Z</time>
      </trkpt>
      <trkpt lat="42.98021" lon="0.31498">
        <ele>1622</ele>
        <time>2018-03-05T10:14:37Z</time>
      </trkpt>
      <trkpt lat="42.98017" lon="0.31505">
        <ele>1624</ele>
        <time>2018-03-05T10:14:53Z</time>
      </trkpt>
      <trkpt lat="42.98016" lon="0.31508">
        <ele>1624</ele>
        <time>2018-03-05T10:14:59Z</time>
      </trkpt>
      <trkpt lat="42.98011" lon="0.31513">
        <ele>1624</ele>
        <time>2018-03-05T10:15:17Z</time>
      </trkpt>
      <trkpt lat="42.98004" lon="0.3152">
        <ele>1625</ele>
        <time>2018-03-05T10:15:38Z</time>
      </trkpt>
      <trkpt lat="42.98003" lon="0.31523">
        <ele>1625</ele>
        <time>2018-03-05T10:15:45Z</time>
      </trkpt>
      <trkpt lat="42.98001" lon="0.31526">
        <ele>1626</ele>
        <time>2018-03-05T10:15:52Z</time>
      </trkpt>
      <trkpt lat="42.98" lon="0.3153">
        <ele>1629</ele>
        <time>2018-03-05T10:16:06Z</time>
      </trkpt>
      <trkpt lat="42.97997" lon="0.31529">
        <ele>1630</ele>
        <time>2018-03-05T10:16:12Z</time>
      </trkpt>
      <trkpt lat="42.97995" lon="0.31525">
        <ele>1630</ele>
        <time>2018-03-05T10:16:19Z</time>
      </trkpt>
      <trkpt lat="42.97994" lon="0.31522">
        <ele>1631</ele>
        <time>2018-03-05T10:16:26Z</time>
      </trkpt>
      <trkpt lat="42.97992" lon="0.31519">
        <ele>1632</ele>
        <time>2018-03-05T10:16:33Z</time>
      </trkpt>
      <trkpt lat="42.97988" lon="0.31513">
        <ele>1634</ele>
        <time>2018-03-05T10:16:51Z</time>
      </trkpt>
      <trkpt lat="42.97986" lon="0.31513">
        <ele>1635</ele>
        <time>2018-03-05T10:16:57Z</time>
      </trkpt>
      <trkpt lat="42.97983" lon="0.31511">
        <ele>1636</ele>
        <time>2018-03-05T10:17:05Z</time>
      </trkpt>
      <trkpt lat="42.9798" lon="0.31511">
        <ele>1639</ele>
        <time>2018-03-05T10:17:15Z</time>
      </trkpt>
      <trkpt lat="42.97977" lon="0.31512">
        <ele>1639</ele>
        <time>2018-03-05T10:17:23Z</time>
      </trkpt>
      <trkpt lat="42.97971" lon="0.31511">
        <ele>1641</ele>
        <time>2018-03-05T10:17:42Z</time>
      </trkpt>
      <trkpt lat="42.97966" lon="0.31508">
        <ele>1643</ele>
        <time>2018-03-05T10:17:57Z</time>
      </trkpt>
      <trkpt lat="42.97958" lon="0.31505">
        <ele>1647</ele>
        <time>2018-03-05T10:18:20Z</time>
      </trkpt>
      <trkpt lat="42.97956" lon="0.31503">
        <ele>1648</ele>
        <time>2018-03-05T10:18:29Z</time>
      </trkpt>
      <trkpt lat="42.9795" lon="0.315">
        <ele>1649</ele>
        <time>2018-03-05T10:19:01Z</time>
      </trkpt>
      <trkpt lat="42.97934" lon="0.3149">
        <ele>1652</ele>
        <time>2018-03-05T10:19:43Z</time>
      </trkpt>
      <trkpt lat="42.9793" lon="0.31488">
        <ele>1655</ele>
        <time>2018-03-05T10:20:02Z</time>
      </trkpt>
      <trkpt lat="42.97928" lon="0.31481">
        <ele>1657</ele>
        <time>2018-03-05T10:20:36Z</time>
      </trkpt>
      <trkpt lat="42.97926" lon="0.31473">
        <ele>1657</ele>
        <time>2018-03-05T10:21:18Z</time>
      </trkpt>
      <trkpt lat="42.97926" lon="0.3147">
        <ele>1659</ele>
        <time>2018-03-05T10:21:56Z</time>
      </trkpt>
      <trkpt lat="42.97923" lon="0.3147">
        <ele>1659</ele>
        <time>2018-03-05T10:22:15Z</time>
      </trkpt>
      <trkpt lat="42.9792" lon="0.31472">
        <ele>1660</ele>
        <time>2018-03-05T10:22:21Z</time>
      </trkpt>
      <trkpt lat="42.97913" lon="0.31477">
        <ele>1660</ele>
        <time>2018-03-05T10:22:39Z</time>
      </trkpt>
      <trkpt lat="42.97911" lon="0.31479">
        <ele>1660</ele>
        <time>2018-03-05T10:22:49Z</time>
      </trkpt>
      <trkpt lat="42.97908" lon="0.31482">
        <ele>1659</ele>
        <time>2018-03-05T10:23:06Z</time>
      </trkpt>
      <trkpt lat="42.97908" lon="0.31486">
        <ele>1659</ele>
        <time>2018-03-05T10:23:16Z</time>
      </trkpt>
      <trkpt lat="42.97905" lon="0.31484">
        <ele>1659</ele>
        <time>2018-03-05T10:23:39Z</time>
      </trkpt>
      <trkpt lat="42.97899" lon="0.31467">
        <ele>1665</ele>
        <time>2018-03-05T10:24:13Z</time>
      </trkpt>
      <trkpt lat="42.97892" lon="0.31449">
        <ele>1671</ele>
        <time>2018-03-05T10:24:48Z</time>
      </trkpt>
      <trkpt lat="42.97889" lon="0.31442">
        <ele>1673</ele>
        <time>2018-03-05T10:25:06Z</time>
      </trkpt>
      <trkpt lat="42.97887" lon="0.3144">
        <ele>1675</ele>
        <time>2018-03-05T10:25:23Z</time>
      </trkpt>
      <trkpt lat="42.97879" lon="0.31446">
        <ele>1675</ele>
        <time>2018-03-05T10:25:45Z</time>
      </trkpt>
      <trkpt lat="42.97876" lon="0.31447">
        <ele>1676</ele>
        <time>2018-03-05T10:25:52Z</time>
      </trkpt>
      <trkpt lat="42.97875" lon="0.31445">
        <ele>1676</ele>
        <time>2018-03-05T10:26:08Z</time>
      </trkpt>
      <trkpt lat="42.97873" lon="0.31434">
        <ele>1678</ele>
        <time>2018-03-05T10:26:34Z</time>
      </trkpt>
      <trkpt lat="42.97873" lon="0.3143">
        <ele>1680</ele>
        <time>2018-03-05T10:26:42Z</time>
      </trkpt>
      <trkpt lat="42.97871" lon="0.31428">
        <ele>1681</ele>
        <time>2018-03-05T10:27:01Z</time>
      </trkpt>
      <trkpt lat="42.97866" lon="0.31432">
        <ele>1683</ele>
        <time>2018-03-05T10:27:17Z</time>
      </trkpt>
      <trkpt lat="42.97859" lon="0.31439">
        <ele>1685</ele>
        <time>2018-03-05T10:27:41Z</time>
      </trkpt>
      <trkpt lat="42.97856" lon="0.31446">
        <ele>1686</ele>
        <time>2018-03-05T10:28:00Z</time>
      </trkpt>
      <trkpt lat="42.97855" lon="0.3145">
        <ele>1687</ele>
        <time>2018-03-05T10:28:09Z</time>
      </trkpt>
      <trkpt lat="42.97853" lon="0.31457">
        <ele>1688</ele>
        <time>2018-03-05T10:28:28Z</time>
      </trkpt>
      <trkpt lat="42.97852" lon="0.31461">
        <ele>1688</ele>
        <time>2018-03-05T10:28:37Z</time>
      </trkpt>
      <trkpt lat="42.9785" lon="0.31459">
        <ele>1689</ele>
        <time>2018-03-05T10:28:54Z</time>
      </trkpt>
      <trkpt lat="42.97844" lon="0.3145">
        <ele>1694</ele>
        <time>2018-03-05T10:29:19Z</time>
      </trkpt>
      <trkpt lat="42.97842" lon="0.31446">
        <ele>1694</ele>
        <time>2018-03-05T10:29:29Z</time>
      </trkpt>
      <trkpt lat="42.97839" lon="0.31439">
        <ele>1696</ele>
        <time>2018-03-05T10:29:44Z</time>
      </trkpt>
      <trkpt lat="42.97835" lon="0.31433">
        <ele>1697</ele>
        <time>2018-03-05T10:30:01Z</time>
      </trkpt>
      <trkpt lat="42.97834" lon="0.3143">
        <ele>1699</ele>
        <time>2018-03-05T10:30:12Z</time>
      </trkpt>
      <trkpt lat="42.97833" lon="0.31422">
        <ele>1700</ele>
        <time>2018-03-05T10:30:46Z</time>
      </trkpt>
      <trkpt lat="42.97834" lon="0.31406">
        <ele>1704</ele>
        <time>2018-03-05T10:31:19Z</time>
      </trkpt>
      <trkpt lat="42.97834" lon="0.31398">
        <ele>1706</ele>
        <time>2018-03-05T10:31:39Z</time>
      </trkpt>
      <trkpt lat="42.97836" lon="0.31395">
        <ele>1707</ele>
        <time>2018-03-05T10:31:51Z</time>
      </trkpt>
      <trkpt lat="42.97838" lon="0.31393">
        <ele>1709</ele>
        <time>2018-03-05T10:32:55Z</time>
      </trkpt>
      <trkpt lat="42.97836" lon="0.31391">
        <ele>1709</ele>
        <time>2018-03-05T10:33:11Z</time>
      </trkpt>
      <trkpt lat="42.97833" lon="0.31392">
        <ele>1709</ele>
        <time>2018-03-05T10:33:17Z</time>
      </trkpt>
      <trkpt lat="42.97823" lon="0.31399">
        <ele>1712</ele>
        <time>2018-03-05T10:33:39Z</time>
      </trkpt>
      <trkpt lat="42.9782" lon="0.31401">
        <ele>1712</ele>
        <time>2018-03-05T10:33:45Z</time>
      </trkpt>
      <trkpt lat="42.97815" lon="0.31406">
        <ele>1713</ele>
        <time>2018-03-05T10:34:03Z</time>
      </trkpt>
      <trkpt lat="42.9781" lon="0.31415">
        <ele>1716</ele>
        <time>2018-03-05T10:34:27Z</time>
      </trkpt>
      <trkpt lat="42.97808" lon="0.31419">
        <ele>1718</ele>
        <time>2018-03-05T10:34:34Z</time>
      </trkpt>
      <trkpt lat="42.97806" lon="0.3142">
        <ele>1719</ele>
        <time>2018-03-05T10:35:21Z</time>
      </trkpt>
      <trkpt lat="42.97805" lon="0.31416">
        <ele>1719</ele>
        <time>2018-03-05T10:35:28Z</time>
      </trkpt>
      <trkpt lat="42.97804" lon="0.31404">
        <ele>1720</ele>
        <time>2018-03-05T10:35:42Z</time>
      </trkpt>
      <trkpt lat="42.97805" lon="0.31393">
        <ele>1721</ele>
        <time>2018-03-05T10:36:14Z</time>
      </trkpt>
      <trkpt lat="42.97809" lon="0.31378">
        <ele>1723</ele>
        <time>2018-03-05T10:36:46Z</time>
      </trkpt>
      <trkpt lat="42.97811" lon="0.31371">
        <ele>1725</ele>
        <time>2018-03-05T10:37:03Z</time>
      </trkpt>
      <trkpt lat="42.97815" lon="0.3136">
        <ele>1728</ele>
        <time>2018-03-05T10:37:22Z</time>
      </trkpt>
      <trkpt lat="42.97818" lon="0.31349">
        <ele>1729</ele>
        <time>2018-03-05T10:37:43Z</time>
      </trkpt>
      <trkpt lat="42.97818" lon="0.31345">
        <ele>1731</ele>
        <time>2018-03-05T10:37:55Z</time>
      </trkpt>
      <trkpt lat="42.97816" lon="0.31345">
        <ele>1732</ele>
        <time>2018-03-05T10:39:42Z</time>
      </trkpt>
      <trkpt lat="42.97813" lon="0.31344">
        <ele>1732</ele>
        <time>2018-03-05T10:39:48Z</time>
      </trkpt>
      <trkpt lat="42.9781" lon="0.31343">
        <ele>1732</ele>
        <time>2018-03-05T10:40:06Z</time>
      </trkpt>
      <trkpt lat="42.97808" lon="0.31341">
        <ele>1734</ele>
        <time>2018-03-05T10:40:19Z</time>
      </trkpt>
      <trkpt lat="42.97805" lon="0.31342">
        <ele>1735</ele>
        <time>2018-03-05T10:40:49Z</time>
      </trkpt>
      <trkpt lat="42.97802" lon="0.31343">
        <ele>1736</ele>
        <time>2018-03-05T10:40:56Z</time>
      </trkpt>
      <trkpt lat="42.978" lon="0.31346">
        <ele>1736</ele>
        <time>2018-03-05T10:41:04Z</time>
      </trkpt>
      <trkpt lat="42.97798" lon="0.31354">
        <ele>1736</ele>
        <time>2018-03-05T10:41:15Z</time>
      </trkpt>
      <trkpt lat="42.97797" lon="0.31358">
        <ele>1737</ele>
        <time>2018-03-05T10:41:22Z</time>
      </trkpt>
      <trkpt lat="42.97795" lon="0.3136">
        <ele>1737</ele>
        <time>2018-03-05T10:41:28Z</time>
      </trkpt>
      <trkpt lat="42.97793" lon="0.31362">
        <ele>1738</ele>
        <time>2018-03-05T10:41:36Z</time>
      </trkpt>
      <trkpt lat="42.9779" lon="0.31363">
        <ele>1739</ele>
        <time>2018-03-05T10:41:49Z</time>
      </trkpt>
      <trkpt lat="42.9779" lon="0.3136">
        <ele>1739</ele>
        <time>2018-03-05T10:41:56Z</time>
      </trkpt>
      <trkpt lat="42.97786" lon="0.31354">
        <ele>1740</ele>
        <time>2018-03-05T10:42:13Z</time>
      </trkpt>
      <trkpt lat="42.97783" lon="0.31348">
        <ele>1742</ele>
        <time>2018-03-05T10:42:32Z</time>
      </trkpt>
      <trkpt lat="42.97781" lon="0.31346">
        <ele>1744</ele>
        <time>2018-03-05T10:42:39Z</time>
      </trkpt>
      <trkpt lat="42.97778" lon="0.31345">
        <ele>1744</ele>
        <time>2018-03-05T10:42:47Z</time>
      </trkpt>
      <trkpt lat="42.97773" lon="0.31347">
        <ele>1747</ele>
        <time>2018-03-05T10:43:01Z</time>
      </trkpt>
      <trkpt lat="42.9777" lon="0.31349">
        <ele>1747</ele>
        <time>2018-03-05T10:43:09Z</time>
      </trkpt>
      <trkpt lat="42.97765" lon="0.31359">
        <ele>1749</ele>
        <time>2018-03-05T10:43:29Z</time>
      </trkpt>
      <trkpt lat="42.97761" lon="0.31364">
        <ele>1750</ele>
        <time>2018-03-05T10:43:42Z</time>
      </trkpt>
      <trkpt lat="42.9776" lon="0.31368">
        <ele>1750</ele>
        <time>2018-03-05T10:44:00Z</time>
      </trkpt>
      <trkpt lat="42.97757" lon="0.31383">
        <ele>1753</ele>
        <time>2018-03-05T10:44:25Z</time>
      </trkpt>
      <trkpt lat="42.97756" lon="0.31387">
        <ele>1753</ele>
        <time>2018-03-05T10:44:31Z</time>
      </trkpt>
      <trkpt lat="42.97755" lon="0.31391">
        <ele>1754</ele>
        <time>2018-03-05T10:44:43Z</time>
      </trkpt>
      <trkpt lat="42.97749" lon="0.31404">
        <ele>1758</ele>
        <time>2018-03-05T10:45:21Z</time>
      </trkpt>
      <trkpt lat="42.97748" lon="0.31408">
        <ele>1758</ele>
        <time>2018-03-05T10:45:28Z</time>
      </trkpt>
      <trkpt lat="42.97747" lon="0.31412">
        <ele>1761</ele>
        <time>2018-03-05T10:45:37Z</time>
      </trkpt>
      <trkpt lat="42.97745" lon="0.31414">
        <ele>1761</ele>
        <time>2018-03-05T10:45:55Z</time>
      </trkpt>
      <trkpt lat="42.97742" lon="0.31413">
        <ele>1762</ele>
        <time>2018-03-05T10:46:02Z</time>
      </trkpt>
      <trkpt lat="42.97739" lon="0.31407">
        <ele>1764</ele>
        <time>2018-03-05T10:46:17Z</time>
      </trkpt>
      <trkpt lat="42.97737" lon="0.31404">
        <ele>1764</ele>
        <time>2018-03-05T10:46:23Z</time>
      </trkpt>
      <trkpt lat="42.97735" lon="0.31401">
        <ele>1767</ele>
        <time>2018-03-05T10:46:48Z</time>
      </trkpt>
      <trkpt lat="42.9773" lon="0.31397">
        <ele>1768</ele>
        <time>2018-03-05T10:47:29Z</time>
      </trkpt>
      <trkpt lat="42.97729" lon="0.31393">
        <ele>1769</ele>
        <time>2018-03-05T10:47:38Z</time>
      </trkpt>
      <trkpt lat="42.97725" lon="0.31387">
        <ele>1771</ele>
        <time>2018-03-05T10:47:57Z</time>
      </trkpt>
      <trkpt lat="42.97722" lon="0.31385">
        <ele>1771</ele>
        <time>2018-03-05T10:48:06Z</time>
      </trkpt>
      <trkpt lat="42.97721" lon="0.31381">
        <ele>1772</ele>
        <time>2018-03-05T10:48:35Z</time>
      </trkpt>
      <trkpt lat="42.97716" lon="0.31372">
        <ele>1773</ele>
        <time>2018-03-05T10:49:11Z</time>
      </trkpt>
      <trkpt lat="42.97714" lon="0.31369">
        <ele>1773</ele>
        <time>2018-03-05T10:49:16Z</time>
      </trkpt>
      <trkpt lat="42.97712" lon="0.31367">
        <ele>1773</ele>
        <time>2018-03-05T10:49:22Z</time>
      </trkpt>
      <trkpt lat="42.9771" lon="0.31363">
        <ele>1775</ele>
        <time>2018-03-05T10:49:32Z</time>
      </trkpt>
      <trkpt lat="42.97705" lon="0.31353">
        <ele>1777</ele>
        <time>2018-03-05T10:49:54Z</time>
      </trkpt>
      <trkpt lat="42.97702" lon="0.31352">
        <ele>1777</ele>
        <time>2018-03-05T10:50:15Z</time>
      </trkpt>
      <trkpt lat="42.97699" lon="0.31364">
        <ele>1779</ele>
        <time>2018-03-05T10:51:24Z</time>
      </trkpt>
      <trkpt lat="42.97693" lon="0.31372">
        <ele>1782</ele>
        <time>2018-03-05T10:51:48Z</time>
      </trkpt>
      <trkpt lat="42.97688" lon="0.31377">
        <ele>1783</ele>
        <time>2018-03-05T10:52:00Z</time>
      </trkpt>
      <trkpt lat="42.97686" lon="0.3138">
        <ele>1784</ele>
        <time>2018-03-05T10:52:08Z</time>
      </trkpt>
      <trkpt lat="42.97682" lon="0.31385">
        <ele>1786</ele>
        <time>2018-03-05T10:52:25Z</time>
      </trkpt>
      <trkpt lat="42.9768" lon="0.31387">
        <ele>1787</ele>
        <time>2018-03-05T10:52:31Z</time>
      </trkpt>
      <trkpt lat="42.97673" lon="0.31394">
        <ele>1788</ele>
        <time>2018-03-05T10:52:53Z</time>
      </trkpt>
      <trkpt lat="42.97669" lon="0.31394">
        <ele>1789</ele>
        <time>2018-03-05T10:53:03Z</time>
      </trkpt>
      <trkpt lat="42.97666" lon="0.31394">
        <ele>1790</ele>
        <time>2018-03-05T10:53:13Z</time>
      </trkpt>
      <trkpt lat="42.97664" lon="0.31396">
        <ele>1791</ele>
        <time>2018-03-05T10:53:21Z</time>
      </trkpt>
      <trkpt lat="42.97658" lon="0.31397">
        <ele>1794</ele>
        <time>2018-03-05T10:53:40Z</time>
      </trkpt>
      <trkpt lat="42.97657" lon="0.31394">
        <ele>1794</ele>
        <time>2018-03-05T10:53:55Z</time>
      </trkpt>
      <trkpt lat="42.97655" lon="0.31386">
        <ele>1796</ele>
        <time>2018-03-05T10:54:09Z</time>
      </trkpt>
      <trkpt lat="42.97653" lon="0.31379">
        <ele>1798</ele>
        <time>2018-03-05T10:54:34Z</time>
      </trkpt>
      <trkpt lat="42.97652" lon="0.31375">
        <ele>1800</ele>
        <time>2018-03-05T10:54:43Z</time>
      </trkpt>
      <trkpt lat="42.97652" lon="0.31372">
        <ele>1800</ele>
        <time>2018-03-05T10:54:49Z</time>
      </trkpt>
      <trkpt lat="42.9765" lon="0.31364">
        <ele>1803</ele>
        <time>2018-03-05T10:55:16Z</time>
      </trkpt>
      <trkpt lat="42.9765" lon="0.31361">
        <ele>1804</ele>
        <time>2018-03-05T10:55:24Z</time>
      </trkpt>
      <trkpt lat="42.97649" lon="0.31357">
        <ele>1804</ele>
        <time>2018-03-05T10:55:33Z</time>
      </trkpt>
      <trkpt lat="42.97642" lon="0.31363">
        <ele>1807</ele>
        <time>2018-03-05T10:55:52Z</time>
      </trkpt>
      <trkpt lat="42.97637" lon="0.31368">
        <ele>1809</ele>
        <time>2018-03-05T10:56:05Z</time>
      </trkpt>
      <trkpt lat="42.97634" lon="0.31369">
        <ele>1812</ele>
        <time>2018-03-05T10:56:22Z</time>
      </trkpt>
      <trkpt lat="42.97632" lon="0.31372">
        <ele>1812</ele>
        <time>2018-03-05T10:56:33Z</time>
      </trkpt>
      <trkpt lat="42.97629" lon="0.31372">
        <ele>1811</ele>
        <time>2018-03-05T10:56:40Z</time>
      </trkpt>
      <trkpt lat="42.97628" lon="0.31369">
        <ele>1811</ele>
        <time>2018-03-05T10:56:57Z</time>
      </trkpt>
      <trkpt lat="42.97628" lon="0.31364">
        <ele>1812</ele>
        <time>2018-03-05T10:57:04Z</time>
      </trkpt>
      <trkpt lat="42.97629" lon="0.31356">
        <ele>1814</ele>
        <time>2018-03-05T10:57:21Z</time>
      </trkpt>
      <trkpt lat="42.97629" lon="0.31352">
        <ele>1814</ele>
        <time>2018-03-05T10:57:34Z</time>
      </trkpt>
      <trkpt lat="42.97628" lon="0.31344">
        <ele>1817</ele>
        <time>2018-03-05T10:57:55Z</time>
      </trkpt>
      <trkpt lat="42.97625" lon="0.31344">
        <ele>1818</ele>
        <time>2018-03-05T10:58:17Z</time>
      </trkpt>
      <trkpt lat="42.97615" lon="0.31349">
        <ele>1821</ele>
        <time>2018-03-05T10:58:45Z</time>
      </trkpt>
      <trkpt lat="42.97612" lon="0.3135">
        <ele>1822</ele>
        <time>2018-03-05T10:58:54Z</time>
      </trkpt>
      <trkpt lat="42.9761" lon="0.3135">
        <ele>1822</ele>
        <time>2018-03-05T10:59:07Z</time>
      </trkpt>
      <trkpt lat="42.9761" lon="0.31346">
        <ele>1823</ele>
        <time>2018-03-05T10:59:19Z</time>
      </trkpt>
      <trkpt lat="42.9761" lon="0.31341">
        <ele>1825</ele>
        <time>2018-03-05T10:59:36Z</time>
      </trkpt>
      <trkpt lat="42.97612" lon="0.3133">
        <ele>1825</ele>
        <time>2018-03-05T10:59:59Z</time>
      </trkpt>
      <trkpt lat="42.97612" lon="0.31325">
        <ele>1826</ele>
        <time>2018-03-05T11:00:08Z</time>
      </trkpt>
      <trkpt lat="42.97612" lon="0.31321">
        <ele>1827</ele>
        <time>2018-03-05T11:00:22Z</time>
      </trkpt>
      <trkpt lat="42.97612" lon="0.31318">
        <ele>1829</ele>
        <time>2018-03-05T11:00:36Z</time>
      </trkpt>
      <trkpt lat="42.97612" lon="0.31314">
        <ele>1830</ele>
        <time>2018-03-05T11:01:17Z</time>
      </trkpt>
      <trkpt lat="42.97609" lon="0.31314">
        <ele>1830</ele>
        <time>2018-03-05T11:01:26Z</time>
      </trkpt>
      <trkpt lat="42.97602" lon="0.31321">
        <ele>1833</ele>
        <time>2018-03-05T11:01:43Z</time>
      </trkpt>
      <trkpt lat="42.97599" lon="0.31322">
        <ele>1833</ele>
        <time>2018-03-05T11:02:07Z</time>
      </trkpt>
      <trkpt lat="42.97598" lon="0.31319">
        <ele>1835</ele>
        <time>2018-03-05T11:02:21Z</time>
      </trkpt>
      <trkpt lat="42.976" lon="0.3131">
        <ele>1837</ele>
        <time>2018-03-05T11:02:38Z</time>
      </trkpt>
      <trkpt lat="42.97605" lon="0.313">
        <ele>1839</ele>
        <time>2018-03-05T11:02:57Z</time>
      </trkpt>
      <trkpt lat="42.97606" lon="0.31296">
        <ele>1840</ele>
        <time>2018-03-05T11:03:10Z</time>
      </trkpt>
      <trkpt lat="42.97604" lon="0.31294">
        <ele>1839</ele>
        <time>2018-03-05T11:13:37Z</time>
      </trkpt>
      <trkpt lat="42.97602" lon="0.3129">
        <ele>1839</ele>
        <time>2018-03-05T11:14:34Z</time>
      </trkpt>
      <trkpt lat="42.97598" lon="0.31282">
        <ele>1841</ele>
        <time>2018-03-05T11:14:48Z</time>
      </trkpt>
      <trkpt lat="42.97597" lon="0.3127">
        <ele>1843</ele>
        <time>2018-03-05T11:15:17Z</time>
      </trkpt>
      <trkpt lat="42.97595" lon="0.31273">
        <ele>1843</ele>
        <time>2018-03-05T11:15:30Z</time>
      </trkpt>
      <trkpt lat="42.97589" lon="0.31275">
        <ele>1844</ele>
        <time>2018-03-05T11:15:58Z</time>
      </trkpt>
      <trkpt lat="42.97587" lon="0.31273">
        <ele>1845</ele>
        <time>2018-03-05T11:16:07Z</time>
      </trkpt>
      <trkpt lat="42.97585" lon="0.31275">
        <ele>1849</ele>
        <time>2018-03-05T11:16:17Z</time>
      </trkpt>
      <trkpt lat="42.97583" lon="0.31277">
        <ele>1850</ele>
        <time>2018-03-05T11:16:30Z</time>
      </trkpt>
      <trkpt lat="42.9758" lon="0.31276">
        <ele>1854</ele>
        <time>2018-03-05T11:16:38Z</time>
      </trkpt>
      <trkpt lat="42.97577" lon="0.31276">
        <ele>1855</ele>
        <time>2018-03-05T11:17:12Z</time>
      </trkpt>
      <trkpt lat="42.97576" lon="0.31273">
        <ele>1856</ele>
        <time>2018-03-05T11:17:25Z</time>
      </trkpt>
      <trkpt lat="42.97571" lon="0.31269">
        <ele>1855</ele>
        <time>2018-03-05T11:17:50Z</time>
      </trkpt>
      <trkpt lat="42.9757" lon="0.31265">
        <ele>1855</ele>
        <time>2018-03-05T11:17:59Z</time>
      </trkpt>
      <trkpt lat="42.97568" lon="0.31258">
        <ele>1862</ele>
        <time>2018-03-05T11:18:35Z</time>
      </trkpt>
      <trkpt lat="42.97566" lon="0.31255">
        <ele>1863</ele>
        <time>2018-03-05T11:18:44Z</time>
      </trkpt>
      <trkpt lat="42.97565" lon="0.31252">
        <ele>1864</ele>
        <time>2018-03-05T11:19:03Z</time>
      </trkpt>
      <trkpt lat="42.97562" lon="0.31249">
        <ele>1866</ele>
        <time>2018-03-05T11:19:20Z</time>
      </trkpt>
      <trkpt lat="42.97561" lon="0.31246">
        <ele>1867</ele>
        <time>2018-03-05T11:19:41Z</time>
      </trkpt>
      <trkpt lat="42.97559" lon="0.31244">
        <ele>1869</ele>
        <time>2018-03-05T11:19:48Z</time>
      </trkpt>
      <trkpt lat="42.97554" lon="0.3124">
        <ele>1870</ele>
        <time>2018-03-05T11:20:02Z</time>
      </trkpt>
      <trkpt lat="42.97553" lon="0.31236">
        <ele>1871</ele>
        <time>2018-03-05T11:20:10Z</time>
      </trkpt>
      <trkpt lat="42.97553" lon="0.31233">
        <ele>1872</ele>
        <time>2018-03-05T11:20:18Z</time>
      </trkpt>
      <trkpt lat="42.9755" lon="0.3123">
        <ele>1871</ele>
        <time>2018-03-05T11:20:56Z</time>
      </trkpt>
      <trkpt lat="42.97543" lon="0.31221">
        <ele>1873</ele>
        <time>2018-03-05T11:21:10Z</time>
      </trkpt>
      <trkpt lat="42.97541" lon="0.31218">
        <ele>1874</ele>
        <time>2018-03-05T11:21:34Z</time>
      </trkpt>
      <trkpt lat="42.97538" lon="0.31217">
        <ele>1873</ele>
        <time>2018-03-05T11:22:27Z</time>
      </trkpt>
      <trkpt lat="42.9752" lon="0.31198">
        <ele>1876</ele>
        <time>2018-03-05T11:23:00Z</time>
      </trkpt>
      <trkpt lat="42.97518" lon="0.31196">
        <ele>1876</ele>
        <time>2018-03-05T11:23:06Z</time>
      </trkpt>
      <trkpt lat="42.97516" lon="0.31193">
        <ele>1877</ele>
        <time>2018-03-05T11:23:14Z</time>
      </trkpt>
      <trkpt lat="42.97506" lon="0.31179">
        <ele>1882</ele>
        <time>2018-03-05T11:23:44Z</time>
      </trkpt>
      <trkpt lat="42.97504" lon="0.31176">
        <ele>1882</ele>
        <time>2018-03-05T11:23:51Z</time>
      </trkpt>
      <trkpt lat="42.97501" lon="0.31176">
        <ele>1883</ele>
        <time>2018-03-05T11:24:00Z</time>
      </trkpt>
      <trkpt lat="42.97499" lon="0.31174">
        <ele>1884</ele>
        <time>2018-03-05T11:24:06Z</time>
      </trkpt>
      <trkpt lat="42.97496" lon="0.31173">
        <ele>1884</ele>
        <time>2018-03-05T11:24:23Z</time>
      </trkpt>
      <trkpt lat="42.97494" lon="0.31171">
        <ele>1885</ele>
        <time>2018-03-05T11:24:32Z</time>
      </trkpt>
      <trkpt lat="42.97491" lon="0.3117">
        <ele>1884</ele>
        <time>2018-03-05T11:24:42Z</time>
      </trkpt>
      <trkpt lat="42.97489" lon="0.31168">
        <ele>1884</ele>
        <time>2018-03-05T11:24:49Z</time>
      </trkpt>
      <trkpt lat="42.97486" lon="0.31166">
        <ele>1884</ele>
        <time>2018-03-05T11:24:59Z</time>
      </trkpt>
      <trkpt lat="42.97484" lon="0.31164">
        <ele>1885</ele>
        <time>2018-03-05T11:25:09Z</time>
      </trkpt>
      <trkpt lat="42.97483" lon="0.3116">
        <ele>1881</ele>
        <time>2018-03-05T11:25:20Z</time>
      </trkpt>
      <trkpt lat="42.9748" lon="0.31161">
        <ele>1887</ele>
        <time>2018-03-05T11:25:36Z</time>
      </trkpt>
      <trkpt lat="42.97478" lon="0.31158">
        <ele>1888</ele>
        <time>2018-03-05T11:25:41Z</time>
      </trkpt>
      <trkpt lat="42.97472" lon="0.31157">
        <ele>1892</ele>
        <time>2018-03-05T11:26:04Z</time>
      </trkpt>
      <trkpt lat="42.9747" lon="0.31155">
        <ele>1893</ele>
        <time>2018-03-05T11:26:13Z</time>
      </trkpt>
      <trkpt lat="42.97467" lon="0.31154">
        <ele>1895</ele>
        <time>2018-03-05T11:26:24Z</time>
      </trkpt>
      <trkpt lat="42.97461" lon="0.31155">
        <ele>1897</ele>
        <time>2018-03-05T11:26:42Z</time>
      </trkpt>
      <trkpt lat="42.97459" lon="0.31154">
        <ele>1888</ele>
        <time>2018-03-05T11:26:50Z</time>
      </trkpt>
      <trkpt lat="42.97456" lon="0.31154">
        <ele>1892</ele>
        <time>2018-03-05T11:27:01Z</time>
      </trkpt>
      <trkpt lat="42.97455" lon="0.3115">
        <ele>1895</ele>
        <time>2018-03-05T11:27:20Z</time>
      </trkpt>
      <trkpt lat="42.9745" lon="0.31156">
        <ele>1895</ele>
        <time>2018-03-05T11:27:57Z</time>
      </trkpt>
      <trkpt lat="42.97451" lon="0.31157">
        <ele>1900</ele>
        <time>2018-03-05T11:28:19Z</time>
      </trkpt>
      <trkpt lat="42.97451" lon="0.31156">
        <ele>1901</ele>
        <time>2018-03-05T11:30:33Z</time>
      </trkpt>
      <trkpt lat="42.97456" lon="0.31155">
        <ele>1902</ele>
        <time>2018-03-05T11:31:46Z</time>
      </trkpt>
      <trkpt lat="42.97467" lon="0.31154">
        <ele>1896</ele>
        <time>2018-03-05T11:32:20Z</time>
      </trkpt>
      <trkpt lat="42.97469" lon="0.31156">
        <ele>1895</ele>
        <time>2018-03-05T11:32:30Z</time>
      </trkpt>
      <trkpt lat="42.97474" lon="0.31161">
        <ele>1893</ele>
        <time>2018-03-05T11:32:43Z</time>
      </trkpt>
      <trkpt lat="42.97477" lon="0.31162">
        <ele>1892</ele>
        <time>2018-03-05T11:33:48Z</time>
      </trkpt>
      <trkpt lat="42.97481" lon="0.31161">
        <ele>1892</ele>
        <time>2018-03-05T11:33:54Z</time>
      </trkpt>
      <trkpt lat="42.97483" lon="0.31163">
        <ele>1888</ele>
        <time>2018-03-05T11:34:01Z</time>
      </trkpt>
      <trkpt lat="42.97487" lon="0.31163">
        <ele>1887</ele>
        <time>2018-03-05T11:34:04Z</time>
      </trkpt>
      <trkpt lat="42.97489" lon="0.31164">
        <ele>1883</ele>
        <time>2018-03-05T11:34:09Z</time>
      </trkpt>
      <trkpt lat="42.97497" lon="0.31172">
        <ele>1880</ele>
        <time>2018-03-05T11:34:30Z</time>
      </trkpt>
      <trkpt lat="42.975" lon="0.31174">
        <ele>1878</ele>
        <time>2018-03-05T11:34:35Z</time>
      </trkpt>
      <trkpt lat="42.97502" lon="0.31175">
        <ele>1877</ele>
        <time>2018-03-05T11:34:40Z</time>
      </trkpt>
      <trkpt lat="42.97508" lon="0.31179">
        <ele>1876</ele>
        <time>2018-03-05T11:34:50Z</time>
      </trkpt>
      <trkpt lat="42.97509" lon="0.31182">
        <ele>1876</ele>
        <time>2018-03-05T11:34:57Z</time>
      </trkpt>
      <trkpt lat="42.97512" lon="0.31185">
        <ele>1875</ele>
        <time>2018-03-05T11:35:03Z</time>
      </trkpt>
      <trkpt lat="42.9752" lon="0.31191">
        <ele>1874</ele>
        <time>2018-03-05T11:35:18Z</time>
      </trkpt>
      <trkpt lat="42.97525" lon="0.31196">
        <ele>1871</ele>
        <time>2018-03-05T11:35:26Z</time>
      </trkpt>
      <trkpt lat="42.97531" lon="0.31203">
        <ele>1871</ele>
        <time>2018-03-05T11:35:36Z</time>
      </trkpt>
      <trkpt lat="42.97539" lon="0.31209">
        <ele>1869</ele>
        <time>2018-03-05T11:35:50Z</time>
      </trkpt>
      <trkpt lat="42.97545" lon="0.31217">
        <ele>1870</ele>
        <time>2018-03-05T11:36:04Z</time>
      </trkpt>
      <trkpt lat="42.97548" lon="0.31217">
        <ele>1869</ele>
        <time>2018-03-05T11:36:08Z</time>
      </trkpt>
      <trkpt lat="42.97554" lon="0.31225">
        <ele>1868</ele>
        <time>2018-03-05T11:36:22Z</time>
      </trkpt>
      <trkpt lat="42.97558" lon="0.31225">
        <ele>1867</ele>
        <time>2018-03-05T11:36:28Z</time>
      </trkpt>
      <trkpt lat="42.97561" lon="0.31232">
        <ele>1864</ele>
        <time>2018-03-05T11:36:39Z</time>
      </trkpt>
      <trkpt lat="42.97565" lon="0.31231">
        <ele>1862</ele>
        <time>2018-03-05T11:36:45Z</time>
      </trkpt>
      <trkpt lat="42.97571" lon="0.31239">
        <ele>1857</ele>
        <time>2018-03-05T11:37:05Z</time>
      </trkpt>
      <trkpt lat="42.97572" lon="0.31243">
        <ele>1856</ele>
        <time>2018-03-05T11:37:10Z</time>
      </trkpt>
      <trkpt lat="42.97573" lon="0.31251">
        <ele>1855</ele>
        <time>2018-03-05T11:37:23Z</time>
      </trkpt>
      <trkpt lat="42.97574" lon="0.31271">
        <ele>1854</ele>
        <time>2018-03-05T11:38:01Z</time>
      </trkpt>
      <trkpt lat="42.97577" lon="0.31272">
        <ele>1854</ele>
        <time>2018-03-05T11:38:09Z</time>
      </trkpt>
      <trkpt lat="42.97579" lon="0.31275">
        <ele>1852</ele>
        <time>2018-03-05T11:38:14Z</time>
      </trkpt>
      <trkpt lat="42.97581" lon="0.31274">
        <ele>1852</ele>
        <time>2018-03-05T11:38:17Z</time>
      </trkpt>
      <trkpt lat="42.97584" lon="0.31275">
        <ele>1850</ele>
        <time>2018-03-05T11:38:24Z</time>
      </trkpt>
      <trkpt lat="42.9759" lon="0.31275">
        <ele>1850</ele>
        <time>2018-03-05T11:38:38Z</time>
      </trkpt>
      <trkpt lat="42.97592" lon="0.31273">
        <ele>1849</ele>
        <time>2018-03-05T11:38:46Z</time>
      </trkpt>
      <trkpt lat="42.97596" lon="0.31271">
        <ele>1845</ele>
        <time>2018-03-05T11:38:49Z</time>
      </trkpt>
      <trkpt lat="42.97601" lon="0.31269">
        <ele>1842</ele>
        <time>2018-03-05T11:39:10Z</time>
      </trkpt>
      <trkpt lat="42.97601" lon="0.31273">
        <ele>1841</ele>
        <time>2018-03-05T11:39:14Z</time>
      </trkpt>
      <trkpt lat="42.97604" lon="0.31275">
        <ele>1838</ele>
        <time>2018-03-05T11:39:22Z</time>
      </trkpt>
      <trkpt lat="42.97604" lon="0.3128">
        <ele>1837</ele>
        <time>2018-03-05T11:39:31Z</time>
      </trkpt>
      <trkpt lat="42.97606" lon="0.31282">
        <ele>1834</ele>
        <time>2018-03-05T11:39:38Z</time>
      </trkpt>
      <trkpt lat="42.97606" lon="0.31286">
        <ele>1832</ele>
        <time>2018-03-05T11:39:47Z</time>
      </trkpt>
      <trkpt lat="42.97609" lon="0.31288">
        <ele>1831</ele>
        <time>2018-03-05T11:39:53Z</time>
      </trkpt>
      <trkpt lat="42.97609" lon="0.31292">
        <ele>1829</ele>
        <time>2018-03-05T11:40:08Z</time>
      </trkpt>
      <trkpt lat="42.97607" lon="0.31294">
        <ele>1836</ele>
        <time>2018-03-05T11:43:35Z</time>
      </trkpt>
      <trkpt lat="42.97605" lon="0.31298">
        <ele>1835</ele>
        <time>2018-03-05T11:54:42Z</time>
      </trkpt>
      <trkpt lat="42.97604" lon="0.31301">
        <ele>1835</ele>
        <time>2018-03-05T11:58:05Z</time>
      </trkpt>
      <trkpt lat="42.97599" lon="0.31312">
        <ele>1834</ele>
        <time>2018-03-05T11:58:14Z</time>
      </trkpt>
      <trkpt lat="42.97599" lon="0.31316">
        <ele>1833</ele>
        <time>2018-03-05T11:58:17Z</time>
      </trkpt>
      <trkpt lat="42.97602" lon="0.31314">
        <ele>1833</ele>
        <time>2018-03-05T11:58:18Z</time>
      </trkpt>
      <trkpt lat="42.97603" lon="0.31317">
        <ele>1833</ele>
        <time>2018-03-05T11:58:21Z</time>
      </trkpt>
      <trkpt lat="42.97603" lon="0.31323">
        <ele>1832</ele>
        <time>2018-03-05T11:58:23Z</time>
      </trkpt>
      <trkpt lat="42.97605" lon="0.31326">
        <ele>1832</ele>
        <time>2018-03-05T11:58:24Z</time>
      </trkpt>
      <trkpt lat="42.97609" lon="0.31324">
        <ele>1830</ele>
        <time>2018-03-05T11:58:26Z</time>
      </trkpt>
      <trkpt lat="42.97611" lon="0.31326">
        <ele>1830</ele>
        <time>2018-03-05T11:58:28Z</time>
      </trkpt>
      <trkpt lat="42.97611" lon="0.3133">
        <ele>1829</ele>
        <time>2018-03-05T11:58:29Z</time>
      </trkpt>
      <trkpt lat="42.97609" lon="0.31334">
        <ele>1828</ele>
        <time>2018-03-05T11:58:31Z</time>
      </trkpt>
      <trkpt lat="42.97608" lon="0.3134">
        <ele>1828</ele>
        <time>2018-03-05T11:58:33Z</time>
      </trkpt>
      <trkpt lat="42.9761" lon="0.31341">
        <ele>1826</ele>
        <time>2018-03-05T11:58:35Z</time>
      </trkpt>
      <trkpt lat="42.97629" lon="0.31363">
        <ele>1818</ele>
        <time>2018-03-05T11:59:00Z</time>
      </trkpt>
      <trkpt lat="42.97632" lon="0.31366">
        <ele>1813</ele>
        <time>2018-03-05T11:59:02Z</time>
      </trkpt>
      <trkpt lat="42.97631" lon="0.31371">
        <ele>1811</ele>
        <time>2018-03-05T11:59:04Z</time>
      </trkpt>
      <trkpt lat="42.97634" lon="0.31377">
        <ele>1809</ele>
        <time>2018-03-05T11:59:06Z</time>
      </trkpt>
      <trkpt lat="42.97636" lon="0.31376">
        <ele>1807</ele>
        <time>2018-03-05T11:59:07Z</time>
      </trkpt>
      <trkpt lat="42.97642" lon="0.31369">
        <ele>1805</ele>
        <time>2018-03-05T11:59:11Z</time>
      </trkpt>
      <trkpt lat="42.97645" lon="0.31365">
        <ele>1804</ele>
        <time>2018-03-05T11:59:13Z</time>
      </trkpt>
      <trkpt lat="42.97656" lon="0.31378">
        <ele>1799</ele>
        <time>2018-03-05T11:59:30Z</time>
      </trkpt>
      <trkpt lat="42.97659" lon="0.31376">
        <ele>1797</ele>
        <time>2018-03-05T11:59:32Z</time>
      </trkpt>
      <trkpt lat="42.97661" lon="0.31382">
        <ele>1794</ele>
        <time>2018-03-05T11:59:35Z</time>
      </trkpt>
      <trkpt lat="42.97662" lon="0.31389">
        <ele>1792</ele>
        <time>2018-03-05T11:59:37Z</time>
      </trkpt>
      <trkpt lat="42.97667" lon="0.31397">
        <ele>1791</ele>
        <time>2018-03-05T11:59:39Z</time>
      </trkpt>
      <trkpt lat="42.97673" lon="0.31392">
        <ele>1790</ele>
        <time>2018-03-05T11:59:42Z</time>
      </trkpt>
      <trkpt lat="42.97674" lon="0.31396">
        <ele>1790</ele>
        <time>2018-03-05T11:59:43Z</time>
      </trkpt>
      <trkpt lat="42.97676" lon="0.31405">
        <ele>1789</ele>
        <time>2018-03-05T11:59:45Z</time>
      </trkpt>
      <trkpt lat="42.97679" lon="0.31408">
        <ele>1789</ele>
        <time>2018-03-05T11:59:46Z</time>
      </trkpt>
      <trkpt lat="42.97682" lon="0.31405">
        <ele>1789</ele>
        <time>2018-03-05T11:59:48Z</time>
      </trkpt>
      <trkpt lat="42.97684" lon="0.31401">
        <ele>1788</ele>
        <time>2018-03-05T11:59:58Z</time>
      </trkpt>
      <trkpt lat="42.97685" lon="0.31396">
        <ele>1787</ele>
        <time>2018-03-05T12:00:23Z</time>
      </trkpt>
      <trkpt lat="42.97686" lon="0.31385">
        <ele>1785</ele>
        <time>2018-03-05T12:00:27Z</time>
      </trkpt>
      <trkpt lat="42.97687" lon="0.31389">
        <ele>1785</ele>
        <time>2018-03-05T12:00:29Z</time>
      </trkpt>
      <trkpt lat="42.97691" lon="0.31394">
        <ele>1785</ele>
        <time>2018-03-05T12:00:31Z</time>
      </trkpt>
      <trkpt lat="42.97693" lon="0.31391">
        <ele>1785</ele>
        <time>2018-03-05T12:00:32Z</time>
      </trkpt>
      <trkpt lat="42.97694" lon="0.31383">
        <ele>1783</ele>
        <time>2018-03-05T12:00:34Z</time>
      </trkpt>
      <trkpt lat="42.97697" lon="0.3138">
        <ele>1782</ele>
        <time>2018-03-05T12:00:35Z</time>
      </trkpt>
      <trkpt lat="42.97704" lon="0.31389">
        <ele>1779</ele>
        <time>2018-03-05T12:00:38Z</time>
      </trkpt>
      <trkpt lat="42.97705" lon="0.31393">
        <ele>1779</ele>
        <time>2018-03-05T12:00:39Z</time>
      </trkpt>
      <trkpt lat="42.9771" lon="0.31396">
        <ele>1778</ele>
        <time>2018-03-05T12:00:41Z</time>
      </trkpt>
      <trkpt lat="42.97718" lon="0.31398">
        <ele>1775</ele>
        <time>2018-03-05T12:00:45Z</time>
      </trkpt>
      <trkpt lat="42.97724" lon="0.31413">
        <ele>1773</ele>
        <time>2018-03-05T12:00:49Z</time>
      </trkpt>
      <trkpt lat="42.97729" lon="0.31417">
        <ele>1772</ele>
        <time>2018-03-05T12:00:51Z</time>
      </trkpt>
      <trkpt lat="42.97731" lon="0.31413">
        <ele>1770</ele>
        <time>2018-03-05T12:00:52Z</time>
      </trkpt>
      <trkpt lat="42.97734" lon="0.31408">
        <ele>1770</ele>
        <time>2018-03-05T12:00:54Z</time>
      </trkpt>
      <trkpt lat="42.97737" lon="0.31409">
        <ele>1768</ele>
        <time>2018-03-05T12:00:58Z</time>
      </trkpt>
      <trkpt lat="42.97741" lon="0.31409">
        <ele>1767</ele>
        <time>2018-03-05T12:01:01Z</time>
      </trkpt>
      <trkpt lat="42.97742" lon="0.31403">
        <ele>1766</ele>
        <time>2018-03-05T12:01:04Z</time>
      </trkpt>
      <trkpt lat="42.97747" lon="0.31401">
        <ele>1763</ele>
        <time>2018-03-05T12:01:06Z</time>
      </trkpt>
      <trkpt lat="42.97747" lon="0.31392">
        <ele>1761</ele>
        <time>2018-03-05T12:01:08Z</time>
      </trkpt>
      <trkpt lat="42.97755" lon="0.3139">
        <ele>1759</ele>
        <time>2018-03-05T12:01:11Z</time>
      </trkpt>
      <trkpt lat="42.97756" lon="0.31386">
        <ele>1758</ele>
        <time>2018-03-05T12:01:13Z</time>
      </trkpt>
      <trkpt lat="42.97759" lon="0.31383">
        <ele>1754</ele>
        <time>2018-03-05T12:01:26Z</time>
      </trkpt>
      <trkpt lat="42.9776" lon="0.3138">
        <ele>1754</ele>
        <time>2018-03-05T12:01:28Z</time>
      </trkpt>
      <trkpt lat="42.9776" lon="0.31375">
        <ele>1753</ele>
        <time>2018-03-05T12:01:29Z</time>
      </trkpt>
      <trkpt lat="42.97759" lon="0.31371">
        <ele>1752</ele>
        <time>2018-03-05T12:01:30Z</time>
      </trkpt>
      <trkpt lat="42.97756" lon="0.31369">
        <ele>1753</ele>
        <time>2018-03-05T12:01:31Z</time>
      </trkpt>
      <trkpt lat="42.97757" lon="0.31364">
        <ele>1752</ele>
        <time>2018-03-05T12:01:33Z</time>
      </trkpt>
      <trkpt lat="42.97761" lon="0.3136">
        <ele>1752</ele>
        <time>2018-03-05T12:01:35Z</time>
      </trkpt>
      <trkpt lat="42.97762" lon="0.31354">
        <ele>1751</ele>
        <time>2018-03-05T12:01:37Z</time>
      </trkpt>
      <trkpt lat="42.97763" lon="0.31349">
        <ele>1749</ele>
        <time>2018-03-05T12:01:39Z</time>
      </trkpt>
      <trkpt lat="42.97768" lon="0.31348">
        <ele>1748</ele>
        <time>2018-03-05T12:01:41Z</time>
      </trkpt>
      <trkpt lat="42.97771" lon="0.31342">
        <ele>1746</ele>
        <time>2018-03-05T12:01:43Z</time>
      </trkpt>
      <trkpt lat="42.97771" lon="0.31337">
        <ele>1745</ele>
        <time>2018-03-05T12:01:44Z</time>
      </trkpt>
      <trkpt lat="42.97772" lon="0.31323">
        <ele>1742</ele>
        <time>2018-03-05T12:01:48Z</time>
      </trkpt>
      <trkpt lat="42.97775" lon="0.31323">
        <ele>1741</ele>
        <time>2018-03-05T12:01:49Z</time>
      </trkpt>
      <trkpt lat="42.97781" lon="0.3133">
        <ele>1739</ele>
        <time>2018-03-05T12:01:52Z</time>
      </trkpt>
      <trkpt lat="42.97785" lon="0.3132">
        <ele>1736</ele>
        <time>2018-03-05T12:01:56Z</time>
      </trkpt>
      <trkpt lat="42.97789" lon="0.3132">
        <ele>1735</ele>
        <time>2018-03-05T12:01:57Z</time>
      </trkpt>
      <trkpt lat="42.97796" lon="0.31327">
        <ele>1734</ele>
        <time>2018-03-05T12:02:01Z</time>
      </trkpt>
      <trkpt lat="42.97803" lon="0.31328">
        <ele>1735</ele>
        <time>2018-03-05T12:02:35Z</time>
      </trkpt>
      <trkpt lat="42.97807" lon="0.31333">
        <ele>1733</ele>
        <time>2018-03-05T12:02:39Z</time>
      </trkpt>
      <trkpt lat="42.97811" lon="0.31336">
        <ele>1732</ele>
        <time>2018-03-05T12:03:02Z</time>
      </trkpt>
      <trkpt lat="42.97812" lon="0.31331">
        <ele>1732</ele>
        <time>2018-03-05T12:03:04Z</time>
      </trkpt>
      <trkpt lat="42.97815" lon="0.31331">
        <ele>1731</ele>
        <time>2018-03-05T12:03:06Z</time>
      </trkpt>
      <trkpt lat="42.97817" lon="0.31335">
        <ele>1731</ele>
        <time>2018-03-05T12:03:08Z</time>
      </trkpt>
      <trkpt lat="42.9782" lon="0.31335">
        <ele>1730</ele>
        <time>2018-03-05T12:03:11Z</time>
      </trkpt>
      <trkpt lat="42.97829" lon="0.31341">
        <ele>1728</ele>
        <time>2018-03-05T12:03:16Z</time>
      </trkpt>
      <trkpt lat="42.97832" lon="0.3134">
        <ele>1727</ele>
        <time>2018-03-05T12:03:17Z</time>
      </trkpt>
      <trkpt lat="42.97835" lon="0.31338">
        <ele>1726</ele>
        <time>2018-03-05T12:03:19Z</time>
      </trkpt>
      <trkpt lat="42.97838" lon="0.31343">
        <ele>1725</ele>
        <time>2018-03-05T12:03:21Z</time>
      </trkpt>
      <trkpt lat="42.97841" lon="0.31348">
        <ele>1725</ele>
        <time>2018-03-05T12:03:34Z</time>
      </trkpt>
      <trkpt lat="42.97844" lon="0.31344">
        <ele>1725</ele>
        <time>2018-03-05T12:03:36Z</time>
      </trkpt>
      <trkpt lat="42.97846" lon="0.31348">
        <ele>1723</ele>
        <time>2018-03-05T12:03:40Z</time>
      </trkpt>
      <trkpt lat="42.97846" lon="0.31353">
        <ele>1723</ele>
        <time>2018-03-05T12:03:43Z</time>
      </trkpt>
      <trkpt lat="42.97825" lon="0.31385">
        <ele>1717</ele>
        <time>2018-03-05T12:03:57Z</time>
      </trkpt>
      <trkpt lat="42.97828" lon="0.3139">
        <ele>1715</ele>
        <time>2018-03-05T12:04:01Z</time>
      </trkpt>
      <trkpt lat="42.97831" lon="0.31388">
        <ele>1714</ele>
        <time>2018-03-05T12:04:02Z</time>
      </trkpt>
      <trkpt lat="42.97834" lon="0.31389">
        <ele>1712</ele>
        <time>2018-03-05T12:04:04Z</time>
      </trkpt>
      <trkpt lat="42.97833" lon="0.31393">
        <ele>1711</ele>
        <time>2018-03-05T12:04:05Z</time>
      </trkpt>
      <trkpt lat="42.97834" lon="0.31398">
        <ele>1710</ele>
        <time>2018-03-05T12:04:07Z</time>
      </trkpt>
      <trkpt lat="42.97838" lon="0.31402">
        <ele>1708</ele>
        <time>2018-03-05T12:04:09Z</time>
      </trkpt>
      <trkpt lat="42.97842" lon="0.314">
        <ele>1707</ele>
        <time>2018-03-05T12:04:11Z</time>
      </trkpt>
      <trkpt lat="42.97844" lon="0.31398">
        <ele>1705</ele>
        <time>2018-03-05T12:04:23Z</time>
      </trkpt>
      <trkpt lat="42.97846" lon="0.31407">
        <ele>1703</ele>
        <time>2018-03-05T12:04:34Z</time>
      </trkpt>
      <trkpt lat="42.97841" lon="0.31431">
        <ele>1697</ele>
        <time>2018-03-05T12:04:40Z</time>
      </trkpt>
      <trkpt lat="42.97844" lon="0.31433">
        <ele>1696</ele>
        <time>2018-03-05T12:04:42Z</time>
      </trkpt>
      <trkpt lat="42.97849" lon="0.31428">
        <ele>1694</ele>
        <time>2018-03-05T12:04:44Z</time>
      </trkpt>
      <trkpt lat="42.97854" lon="0.31425">
        <ele>1693</ele>
        <time>2018-03-05T12:04:46Z</time>
      </trkpt>
      <trkpt lat="42.97854" lon="0.31435">
        <ele>1692</ele>
        <time>2018-03-05T12:04:49Z</time>
      </trkpt>
      <trkpt lat="42.9786" lon="0.31437">
        <ele>1689</ele>
        <time>2018-03-05T12:04:52Z</time>
      </trkpt>
      <trkpt lat="42.97863" lon="0.31442">
        <ele>1688</ele>
        <time>2018-03-05T12:04:54Z</time>
      </trkpt>
      <trkpt lat="42.97867" lon="0.31442">
        <ele>1685</ele>
        <time>2018-03-05T12:04:56Z</time>
      </trkpt>
      <trkpt lat="42.9787" lon="0.31445">
        <ele>1683</ele>
        <time>2018-03-05T12:04:58Z</time>
      </trkpt>
      <trkpt lat="42.9787" lon="0.31451">
        <ele>1682</ele>
        <time>2018-03-05T12:05:00Z</time>
      </trkpt>
      <trkpt lat="42.97872" lon="0.31459">
        <ele>1679</ele>
        <time>2018-03-05T12:05:12Z</time>
      </trkpt>
      <trkpt lat="42.97872" lon="0.31461">
        <ele>1681</ele>
        <time>2018-03-05T12:07:17Z</time>
      </trkpt>
      <trkpt lat="42.97879" lon="0.31456">
        <ele>1674</ele>
        <time>2018-03-05T12:12:43Z</time>
      </trkpt>
      <trkpt lat="42.97881" lon="0.31465">
        <ele>1673</ele>
        <time>2018-03-05T12:22:10Z</time>
      </trkpt>
      <trkpt lat="42.97878" lon="0.31463">
        <ele>1671</ele>
        <time>2018-03-05T12:32:05Z</time>
      </trkpt>
      <trkpt lat="42.97879" lon="0.31459">
        <ele>1672</ele>
        <time>2018-03-05T12:36:29Z</time>
      </trkpt>
      <trkpt lat="42.97882" lon="0.31459">
        <ele>1672</ele>
        <time>2018-03-05T12:37:11Z</time>
      </trkpt>
      <trkpt lat="42.97884" lon="0.31456">
        <ele>1672</ele>
        <time>2018-03-05T12:37:27Z</time>
      </trkpt>
      <trkpt lat="42.97886" lon="0.31459">
        <ele>1680</ele>
        <time>2018-03-05T12:37:37Z</time>
      </trkpt>
      <trkpt lat="42.9789" lon="0.31462">
        <ele>1675</ele>
        <time>2018-03-05T12:37:40Z</time>
      </trkpt>
      <trkpt lat="42.97892" lon="0.31459">
        <ele>1673</ele>
        <time>2018-03-05T12:37:41Z</time>
      </trkpt>
      <trkpt lat="42.97895" lon="0.31451">
        <ele>1668</ele>
        <time>2018-03-05T12:37:45Z</time>
      </trkpt>
      <trkpt lat="42.97898" lon="0.31455">
        <ele>1666</ele>
        <time>2018-03-05T12:37:59Z</time>
      </trkpt>
      <trkpt lat="42.97899" lon="0.3146">
        <ele>1664</ele>
        <time>2018-03-05T12:38:01Z</time>
      </trkpt>
      <trkpt lat="42.97902" lon="0.31462">
        <ele>1663</ele>
        <time>2018-03-05T12:38:03Z</time>
      </trkpt>
      <trkpt lat="42.97905" lon="0.3146">
        <ele>1661</ele>
        <time>2018-03-05T12:38:05Z</time>
      </trkpt>
      <trkpt lat="42.97909" lon="0.31463">
        <ele>1660</ele>
        <time>2018-03-05T12:38:07Z</time>
      </trkpt>
      <trkpt lat="42.9791" lon="0.31468">
        <ele>1659</ele>
        <time>2018-03-05T12:38:09Z</time>
      </trkpt>
      <trkpt lat="42.97911" lon="0.31473">
        <ele>1657</ele>
        <time>2018-03-05T12:38:11Z</time>
      </trkpt>
      <trkpt lat="42.97915" lon="0.31472">
        <ele>1656</ele>
        <time>2018-03-05T12:38:13Z</time>
      </trkpt>
      <trkpt lat="42.97916" lon="0.31478">
        <ele>1655</ele>
        <time>2018-03-05T12:38:15Z</time>
      </trkpt>
      <trkpt lat="42.97921" lon="0.3148">
        <ele>1652</ele>
        <time>2018-03-05T12:38:17Z</time>
      </trkpt>
      <trkpt lat="42.97925" lon="0.3148">
        <ele>1651</ele>
        <time>2018-03-05T12:38:19Z</time>
      </trkpt>
      <trkpt lat="42.97928" lon="0.31489">
        <ele>1648</ele>
        <time>2018-03-05T12:38:21Z</time>
      </trkpt>
      <trkpt lat="42.97935" lon="0.31497">
        <ele>1646</ele>
        <time>2018-03-05T12:38:24Z</time>
      </trkpt>
      <trkpt lat="42.97943" lon="0.31505">
        <ele>1644</ele>
        <time>2018-03-05T12:38:27Z</time>
      </trkpt>
      <trkpt lat="42.97966" lon="0.31542">
        <ele>1639</ele>
        <time>2018-03-05T12:38:40Z</time>
      </trkpt>
      <trkpt lat="42.97969" lon="0.31542">
        <ele>1638</ele>
        <time>2018-03-05T12:38:41Z</time>
      </trkpt>
      <trkpt lat="42.97972" lon="0.31535">
        <ele>1636</ele>
        <time>2018-03-05T12:38:43Z</time>
      </trkpt>
      <trkpt lat="42.97976" lon="0.31535">
        <ele>1635</ele>
        <time>2018-03-05T12:38:44Z</time>
      </trkpt>
      <trkpt lat="42.97978" lon="0.31537">
        <ele>1634</ele>
        <time>2018-03-05T12:38:45Z</time>
      </trkpt>
      <trkpt lat="42.97981" lon="0.31538">
        <ele>1633</ele>
        <time>2018-03-05T12:38:46Z</time>
      </trkpt>
      <trkpt lat="42.97984" lon="0.3153">
        <ele>1632</ele>
        <time>2018-03-05T12:38:48Z</time>
      </trkpt>
      <trkpt lat="42.97989" lon="0.31533">
        <ele>1630</ele>
        <time>2018-03-05T12:38:50Z</time>
      </trkpt>
      <trkpt lat="42.97992" lon="0.31534">
        <ele>1629</ele>
        <time>2018-03-05T12:38:51Z</time>
      </trkpt>
      <trkpt lat="42.97997" lon="0.31527">
        <ele>1627</ele>
        <time>2018-03-05T12:38:53Z</time>
      </trkpt>
      <trkpt lat="42.97999" lon="0.31528">
        <ele>1627</ele>
        <time>2018-03-05T12:38:54Z</time>
      </trkpt>
      <trkpt lat="42.98001" lon="0.31531">
        <ele>1625</ele>
        <time>2018-03-05T12:38:55Z</time>
      </trkpt>
      <trkpt lat="42.98005" lon="0.31531">
        <ele>1624</ele>
        <time>2018-03-05T12:38:56Z</time>
      </trkpt>
      <trkpt lat="42.98008" lon="0.31528">
        <ele>1623</ele>
        <time>2018-03-05T12:38:57Z</time>
      </trkpt>
      <trkpt lat="42.9801" lon="0.31526">
        <ele>1621</ele>
        <time>2018-03-05T12:39:27Z</time>
      </trkpt>
      <trkpt lat="42.98013" lon="0.31523">
        <ele>1621</ele>
        <time>2018-03-05T12:39:32Z</time>
      </trkpt>
      <trkpt lat="42.9802" lon="0.31509">
        <ele>1618</ele>
        <time>2018-03-05T12:39:36Z</time>
      </trkpt>
      <trkpt lat="42.98022" lon="0.31498">
        <ele>1616</ele>
        <time>2018-03-05T12:39:39Z</time>
      </trkpt>
      <trkpt lat="42.98024" lon="0.31496">
        <ele>1616</ele>
        <time>2018-03-05T12:39:40Z</time>
      </trkpt>
      <trkpt lat="42.9803" lon="0.315">
        <ele>1614</ele>
        <time>2018-03-05T12:39:42Z</time>
      </trkpt>
      <trkpt lat="42.98034" lon="0.315">
        <ele>1612</ele>
        <time>2018-03-05T12:39:43Z</time>
      </trkpt>
      <trkpt lat="42.98041" lon="0.31492">
        <ele>1610</ele>
        <time>2018-03-05T12:39:46Z</time>
      </trkpt>
      <trkpt lat="42.98044" lon="0.31499">
        <ele>1609</ele>
        <time>2018-03-05T12:39:47Z</time>
      </trkpt>
      <trkpt lat="42.98047" lon="0.31503">
        <ele>1608</ele>
        <time>2018-03-05T12:39:48Z</time>
      </trkpt>
      <trkpt lat="42.98051" lon="0.31501">
        <ele>1606</ele>
        <time>2018-03-05T12:39:49Z</time>
      </trkpt>
      <trkpt lat="42.98053" lon="0.31497">
        <ele>1605</ele>
        <time>2018-03-05T12:39:50Z</time>
      </trkpt>
      <trkpt lat="42.98057" lon="0.31497">
        <ele>1604</ele>
        <time>2018-03-05T12:39:51Z</time>
      </trkpt>
      <trkpt lat="42.9806" lon="0.31501">
        <ele>1603</ele>
        <time>2018-03-05T12:39:52Z</time>
      </trkpt>
      <trkpt lat="42.98065" lon="0.31502">
        <ele>1601</ele>
        <time>2018-03-05T12:39:53Z</time>
      </trkpt>
      <trkpt lat="42.98071" lon="0.31496">
        <ele>1600</ele>
        <time>2018-03-05T12:39:55Z</time>
      </trkpt>
      <trkpt lat="42.98085" lon="0.31501">
        <ele>1597</ele>
        <time>2018-03-05T12:39:58Z</time>
      </trkpt>
      <trkpt lat="42.98095" lon="0.31499">
        <ele>1596</ele>
        <time>2018-03-05T12:40:00Z</time>
      </trkpt>
      <trkpt lat="42.98107" lon="0.31495">
        <ele>1594</ele>
        <time>2018-03-05T12:40:03Z</time>
      </trkpt>
      <trkpt lat="42.98127" lon="0.31476">
        <ele>1591</ele>
        <time>2018-03-05T12:40:11Z</time>
      </trkpt>
      <trkpt lat="42.98132" lon="0.31482">
        <ele>1589</ele>
        <time>2018-03-05T12:40:13Z</time>
      </trkpt>
      <trkpt lat="42.98135" lon="0.31481">
        <ele>1588</ele>
        <time>2018-03-05T12:40:14Z</time>
      </trkpt>
      <trkpt lat="42.98139" lon="0.3148">
        <ele>1587</ele>
        <time>2018-03-05T12:40:15Z</time>
      </trkpt>
      <trkpt lat="42.98142" lon="0.31481">
        <ele>1586</ele>
        <time>2018-03-05T12:40:16Z</time>
      </trkpt>
      <trkpt lat="42.98143" lon="0.31485">
        <ele>1585</ele>
        <time>2018-03-05T12:40:18Z</time>
      </trkpt>
      <trkpt lat="42.98143" lon="0.3149">
        <ele>1584</ele>
        <time>2018-03-05T12:40:38Z</time>
      </trkpt>
      <trkpt lat="42.98142" lon="0.31498">
        <ele>1582</ele>
        <time>2018-03-05T12:40:40Z</time>
      </trkpt>
      <trkpt lat="42.98146" lon="0.315">
        <ele>1581</ele>
        <time>2018-03-05T12:40:43Z</time>
      </trkpt>
      <trkpt lat="42.98149" lon="0.31499">
        <ele>1580</ele>
        <time>2018-03-05T12:40:44Z</time>
      </trkpt>
      <trkpt lat="42.98154" lon="0.31498">
        <ele>1578</ele>
        <time>2018-03-05T12:40:46Z</time>
      </trkpt>
      <trkpt lat="42.98155" lon="0.31502">
        <ele>1578</ele>
        <time>2018-03-05T12:40:47Z</time>
      </trkpt>
      <trkpt lat="42.98154" lon="0.31506">
        <ele>1576</ele>
        <time>2018-03-05T12:40:48Z</time>
      </trkpt>
      <trkpt lat="42.98154" lon="0.31511">
        <ele>1576</ele>
        <time>2018-03-05T12:40:49Z</time>
      </trkpt>
      <trkpt lat="42.98157" lon="0.31511">
        <ele>1575</ele>
        <time>2018-03-05T12:40:51Z</time>
      </trkpt>
      <trkpt lat="42.98161" lon="0.31513">
        <ele>1574</ele>
        <time>2018-03-05T12:40:53Z</time>
      </trkpt>
      <trkpt lat="42.98163" lon="0.31517">
        <ele>1573</ele>
        <time>2018-03-05T12:40:56Z</time>
      </trkpt>
      <trkpt lat="42.98165" lon="0.31527">
        <ele>1571</ele>
        <time>2018-03-05T12:41:03Z</time>
      </trkpt>
      <trkpt lat="42.98163" lon="0.31532">
        <ele>1570</ele>
        <time>2018-03-05T12:41:05Z</time>
      </trkpt>
      <trkpt lat="42.98162" lon="0.31537">
        <ele>1570</ele>
        <time>2018-03-05T12:41:07Z</time>
      </trkpt>
      <trkpt lat="42.98162" lon="0.31541">
        <ele>1569</ele>
        <time>2018-03-05T12:41:29Z</time>
      </trkpt>
      <trkpt lat="42.98166" lon="0.31543">
        <ele>1568</ele>
        <time>2018-03-05T12:41:40Z</time>
      </trkpt>
      <trkpt lat="42.98169" lon="0.31542">
        <ele>1567</ele>
        <time>2018-03-05T12:41:44Z</time>
      </trkpt>
      <trkpt lat="42.98175" lon="0.3154">
        <ele>1566</ele>
        <time>2018-03-05T12:41:49Z</time>
      </trkpt>
      <trkpt lat="42.98189" lon="0.31539">
        <ele>1563</ele>
        <time>2018-03-05T12:41:53Z</time>
      </trkpt>
      <trkpt lat="42.98192" lon="0.31542">
        <ele>1562</ele>
        <time>2018-03-05T12:41:54Z</time>
      </trkpt>
      <trkpt lat="42.98196" lon="0.31557">
        <ele>1561</ele>
        <time>2018-03-05T12:41:57Z</time>
      </trkpt>
      <trkpt lat="42.98197" lon="0.31561">
        <ele>1586</ele>
        <time>2018-03-05T12:41:58Z</time>
      </trkpt>
      <trkpt lat="42.98201" lon="0.31566">
        <ele>1586</ele>
        <time>2018-03-05T12:42:00Z</time>
      </trkpt>
      <trkpt lat="42.98206" lon="0.31571">
        <ele>1575</ele>
        <time>2018-03-05T12:42:04Z</time>
      </trkpt>
      <trkpt lat="42.98216" lon="0.31598">
        <ele>1562</ele>
        <time>2018-03-05T12:42:16Z</time>
      </trkpt>
      <trkpt lat="42.98218" lon="0.31608">
        <ele>1562</ele>
        <time>2018-03-05T12:42:20Z</time>
      </trkpt>
      <trkpt lat="42.98226" lon="0.31605">
        <ele>1560</ele>
        <time>2018-03-05T12:42:24Z</time>
      </trkpt>
      <trkpt lat="42.98229" lon="0.31608">
        <ele>1559</ele>
        <time>2018-03-05T12:42:26Z</time>
      </trkpt>
      <trkpt lat="42.98232" lon="0.31604">
        <ele>1558</ele>
        <time>2018-03-05T12:42:28Z</time>
      </trkpt>
      <trkpt lat="42.98236" lon="0.31601">
        <ele>1555</ele>
        <time>2018-03-05T12:42:30Z</time>
      </trkpt>
      <trkpt lat="42.98241" lon="0.31605">
        <ele>1554</ele>
        <time>2018-03-05T12:42:32Z</time>
      </trkpt>
      <trkpt lat="42.98244" lon="0.316">
        <ele>1553</ele>
        <time>2018-03-05T12:42:34Z</time>
      </trkpt>
      <trkpt lat="42.98247" lon="0.31605">
        <ele>1551</ele>
        <time>2018-03-05T12:42:36Z</time>
      </trkpt>
      <trkpt lat="42.9825" lon="0.31605">
        <ele>1550</ele>
        <time>2018-03-05T12:42:37Z</time>
      </trkpt>
      <trkpt lat="42.98256" lon="0.31599">
        <ele>1547</ele>
        <time>2018-03-05T12:42:41Z</time>
      </trkpt>
      <trkpt lat="42.9826" lon="0.31602">
        <ele>1544</ele>
        <time>2018-03-05T12:42:43Z</time>
      </trkpt>
      <trkpt lat="42.98264" lon="0.31598">
        <ele>1542</ele>
        <time>2018-03-05T12:42:45Z</time>
      </trkpt>
      <trkpt lat="42.98266" lon="0.31601">
        <ele>1541</ele>
        <time>2018-03-05T12:42:46Z</time>
      </trkpt>
      <trkpt lat="42.9827" lon="0.31614">
        <ele>1535</ele>
        <time>2018-03-05T12:42:49Z</time>
      </trkpt>
      <trkpt lat="42.98272" lon="0.31623">
        <ele>1532</ele>
        <time>2018-03-05T12:42:51Z</time>
      </trkpt>
      <trkpt lat="42.98272" lon="0.31628">
        <ele>1531</ele>
        <time>2018-03-05T12:42:53Z</time>
      </trkpt>
      <trkpt lat="42.98276" lon="0.31633">
        <ele>1529</ele>
        <time>2018-03-05T12:42:55Z</time>
      </trkpt>
      <trkpt lat="42.98279" lon="0.31632">
        <ele>1527</ele>
        <time>2018-03-05T12:42:56Z</time>
      </trkpt>
      <trkpt lat="42.98281" lon="0.3163">
        <ele>1526</ele>
        <time>2018-03-05T12:42:57Z</time>
      </trkpt>
      <trkpt lat="42.98292" lon="0.3162">
        <ele>1520</ele>
        <time>2018-03-05T12:43:01Z</time>
      </trkpt>
      <trkpt lat="42.98295" lon="0.31615">
        <ele>1518</ele>
        <time>2018-03-05T12:43:03Z</time>
      </trkpt>
      <trkpt lat="42.98305" lon="0.31606">
        <ele>1513</ele>
        <time>2018-03-05T12:43:25Z</time>
      </trkpt>
      <trkpt lat="42.98307" lon="0.31602">
        <ele>1513</ele>
        <time>2018-03-05T12:43:27Z</time>
      </trkpt>
      <trkpt lat="42.9831" lon="0.31603">
        <ele>1511</ele>
        <time>2018-03-05T12:43:28Z</time>
      </trkpt>
      <trkpt lat="42.98311" lon="0.31608">
        <ele>1510</ele>
        <time>2018-03-05T12:43:29Z</time>
      </trkpt>
      <trkpt lat="42.98311" lon="0.31613">
        <ele>1508</ele>
        <time>2018-03-05T12:43:31Z</time>
      </trkpt>
      <trkpt lat="42.98313" lon="0.31619">
        <ele>1506</ele>
        <time>2018-03-05T12:43:34Z</time>
      </trkpt>
      <trkpt lat="42.98315" lon="0.31621">
        <ele>1505</ele>
        <time>2018-03-05T12:43:35Z</time>
      </trkpt>
      <trkpt lat="42.98319" lon="0.31618">
        <ele>1503</ele>
        <time>2018-03-05T12:43:36Z</time>
      </trkpt>
      <trkpt lat="42.98328" lon="0.31604">
        <ele>1497</ele>
        <time>2018-03-05T12:43:42Z</time>
      </trkpt>
      <trkpt lat="42.98329" lon="0.316">
        <ele>1497</ele>
        <time>2018-03-05T12:43:59Z</time>
      </trkpt>
      <trkpt lat="42.98333" lon="0.31596">
        <ele>1496</ele>
        <time>2018-03-05T12:44:02Z</time>
      </trkpt>
      <trkpt lat="42.98334" lon="0.316">
        <ele>1495</ele>
        <time>2018-03-05T12:44:03Z</time>
      </trkpt>
      <trkpt lat="42.98338" lon="0.31601">
        <ele>1492</ele>
        <time>2018-03-05T12:44:06Z</time>
      </trkpt>
      <trkpt lat="42.98341" lon="0.31599">
        <ele>1491</ele>
        <time>2018-03-05T12:44:08Z</time>
      </trkpt>
      <trkpt lat="42.98343" lon="0.31603">
        <ele>1490</ele>
        <time>2018-03-05T12:44:10Z</time>
      </trkpt>
      <trkpt lat="42.98344" lon="0.31606">
        <ele>1487</ele>
        <time>2018-03-05T12:44:35Z</time>
      </trkpt>
      <trkpt lat="42.98347" lon="0.31607">
        <ele>1486</ele>
        <time>2018-03-05T12:44:59Z</time>
      </trkpt>
      <trkpt lat="42.98353" lon="0.31609">
        <ele>1479</ele>
        <time>2018-03-05T12:45:24Z</time>
      </trkpt>
      <trkpt lat="42.98357" lon="0.31608">
        <ele>1477</ele>
        <time>2018-03-05T12:45:46Z</time>
      </trkpt>
      <trkpt lat="42.9836" lon="0.31607">
        <ele>1476</ele>
        <time>2018-03-05T12:45:48Z</time>
      </trkpt>
      <trkpt lat="42.98362" lon="0.31609">
        <ele>1476</ele>
        <time>2018-03-05T12:45:49Z</time>
      </trkpt>
      <trkpt lat="42.98363" lon="0.31614">
        <ele>1475</ele>
        <time>2018-03-05T12:45:51Z</time>
      </trkpt>
      <trkpt lat="42.98367" lon="0.31614">
        <ele>1474</ele>
        <time>2018-03-05T12:45:53Z</time>
      </trkpt>
      <trkpt lat="42.98369" lon="0.31612">
        <ele>1472</ele>
        <time>2018-03-05T12:45:54Z</time>
      </trkpt>
      <trkpt lat="42.98371" lon="0.31615">
        <ele>1471</ele>
        <time>2018-03-05T12:45:55Z</time>
      </trkpt>
      <trkpt lat="42.98372" lon="0.31619">
        <ele>1469</ele>
        <time>2018-03-05T12:45:56Z</time>
      </trkpt>
      <trkpt lat="42.98374" lon="0.31623">
        <ele>1467</ele>
        <time>2018-03-05T12:45:57Z</time>
      </trkpt>
      <trkpt lat="42.98379" lon="0.31621">
        <ele>1464</ele>
        <time>2018-03-05T12:45:59Z</time>
      </trkpt>
      <trkpt lat="42.98382" lon="0.31625">
        <ele>1461</ele>
        <time>2018-03-05T12:46:00Z</time>
      </trkpt>
      <trkpt lat="42.98384" lon="0.31636">
        <ele>1457</ele>
        <time>2018-03-05T12:46:03Z</time>
      </trkpt>
      <trkpt lat="42.98389" lon="0.31636">
        <ele>1454</ele>
        <time>2018-03-05T12:46:04Z</time>
      </trkpt>
      <trkpt lat="42.98391" lon="0.31632">
        <ele>1454</ele>
        <time>2018-03-05T12:46:05Z</time>
      </trkpt>
      <trkpt lat="42.98394" lon="0.31628">
        <ele>1451</ele>
        <time>2018-03-05T12:46:07Z</time>
      </trkpt>
      <trkpt lat="42.98397" lon="0.31633">
        <ele>1450</ele>
        <time>2018-03-05T12:46:09Z</time>
      </trkpt>
      <trkpt lat="42.984" lon="0.31634">
        <ele>1447</ele>
        <time>2018-03-05T12:46:10Z</time>
      </trkpt>
      <trkpt lat="42.98403" lon="0.31631">
        <ele>1445</ele>
        <time>2018-03-05T12:46:12Z</time>
      </trkpt>
      <trkpt lat="42.98406" lon="0.31627">
        <ele>1443</ele>
        <time>2018-03-05T12:46:15Z</time>
      </trkpt>
      <trkpt lat="42.9841" lon="0.3163">
        <ele>1441</ele>
        <time>2018-03-05T12:46:17Z</time>
      </trkpt>
      <trkpt lat="42.98412" lon="0.31634">
        <ele>1437</ele>
        <time>2018-03-05T12:46:34Z</time>
      </trkpt>
      <trkpt lat="42.98413" lon="0.3164">
        <ele>1435</ele>
        <time>2018-03-05T12:46:36Z</time>
      </trkpt>
      <trkpt lat="42.98416" lon="0.31639">
        <ele>1434</ele>
        <time>2018-03-05T12:46:37Z</time>
      </trkpt>
      <trkpt lat="42.9842" lon="0.31641">
        <ele>1431</ele>
        <time>2018-03-05T12:46:39Z</time>
      </trkpt>
      <trkpt lat="42.98422" lon="0.31645">
        <ele>1430</ele>
        <time>2018-03-05T12:46:40Z</time>
      </trkpt>
      <trkpt lat="42.98427" lon="0.31643">
        <ele>1427</ele>
        <time>2018-03-05T12:46:41Z</time>
      </trkpt>
      <trkpt lat="42.98432" lon="0.3164">
        <ele>1426</ele>
        <time>2018-03-05T12:46:42Z</time>
      </trkpt>
      <trkpt lat="42.9845" lon="0.31616">
        <ele>1417</ele>
        <time>2018-03-05T12:46:49Z</time>
      </trkpt>
      <trkpt lat="42.98454" lon="0.31607">
        <ele>1415</ele>
        <time>2018-03-05T12:46:52Z</time>
      </trkpt>
      <trkpt lat="42.98459" lon="0.31605">
        <ele>1414</ele>
        <time>2018-03-05T12:46:54Z</time>
      </trkpt>
      <trkpt lat="42.98463" lon="0.31604">
        <ele>1413</ele>
        <time>2018-03-05T12:46:55Z</time>
      </trkpt>
      <trkpt lat="42.98465" lon="0.31602">
        <ele>1412</ele>
        <time>2018-03-05T12:46:56Z</time>
      </trkpt>
      <trkpt lat="42.98469" lon="0.31603">
        <ele>1411</ele>
        <time>2018-03-05T12:46:57Z</time>
      </trkpt>
      <trkpt lat="42.98474" lon="0.31602">
        <ele>1409</ele>
        <time>2018-03-05T12:46:58Z</time>
      </trkpt>
      <trkpt lat="42.98476" lon="0.31598">
        <ele>1408</ele>
        <time>2018-03-05T12:46:59Z</time>
      </trkpt>
      <trkpt lat="42.98482" lon="0.31595">
        <ele>1405</ele>
        <time>2018-03-05T12:47:01Z</time>
      </trkpt>
      <trkpt lat="42.98483" lon="0.31591">
        <ele>1404</ele>
        <time>2018-03-05T12:47:09Z</time>
      </trkpt>
      <trkpt lat="42.98487" lon="0.31589">
        <ele>1403</ele>
        <time>2018-03-05T12:47:11Z</time>
      </trkpt>
      <trkpt lat="42.98491" lon="0.31586">
        <ele>1402</ele>
        <time>2018-03-05T12:47:12Z</time>
      </trkpt>
      <trkpt lat="42.98493" lon="0.3158">
        <ele>1401</ele>
        <time>2018-03-05T12:47:13Z</time>
      </trkpt>
      <trkpt lat="42.98495" lon="0.31575">
        <ele>1400</ele>
        <time>2018-03-05T12:47:14Z</time>
      </trkpt>
      <trkpt lat="42.98492" lon="0.31575">
        <ele>1399</ele>
        <time>2018-03-05T12:47:17Z</time>
      </trkpt>
      <trkpt lat="42.98492" lon="0.31571">
        <ele>1399</ele>
        <time>2018-03-05T12:47:38Z</time>
      </trkpt>
      <trkpt lat="42.98494" lon="0.31564">
        <ele>1398</ele>
        <time>2018-03-05T12:47:41Z</time>
      </trkpt>
      <trkpt lat="42.98494" lon="0.31556">
        <ele>1397</ele>
        <time>2018-03-05T12:47:43Z</time>
      </trkpt>
      <trkpt lat="42.98496" lon="0.31551">
        <ele>1396</ele>
        <time>2018-03-05T12:47:44Z</time>
      </trkpt>
      <trkpt lat="42.98496" lon="0.31546">
        <ele>1396</ele>
        <time>2018-03-05T12:47:45Z</time>
      </trkpt>
      <trkpt lat="42.98498" lon="0.31541">
        <ele>1395</ele>
        <time>2018-03-05T12:47:46Z</time>
      </trkpt>
      <trkpt lat="42.98499" lon="0.31531">
        <ele>1393</ele>
        <time>2018-03-05T12:47:48Z</time>
      </trkpt>
      <trkpt lat="42.98501" lon="0.31525">
        <ele>1392</ele>
        <time>2018-03-05T12:47:49Z</time>
      </trkpt>
      <trkpt lat="42.985" lon="0.31518">
        <ele>1391</ele>
        <time>2018-03-05T12:47:50Z</time>
      </trkpt>
      <trkpt lat="42.98498" lon="0.31513">
        <ele>1391</ele>
        <time>2018-03-05T12:47:51Z</time>
      </trkpt>
      <trkpt lat="42.98499" lon="0.31508">
        <ele>1390</ele>
        <time>2018-03-05T12:47:52Z</time>
      </trkpt>
      <trkpt lat="42.98502" lon="0.31504">
        <ele>1389</ele>
        <time>2018-03-05T12:47:53Z</time>
      </trkpt>
      <trkpt lat="42.98501" lon="0.31497">
        <ele>1387</ele>
        <time>2018-03-05T12:47:54Z</time>
      </trkpt>
      <trkpt lat="42.985" lon="0.31492">
        <ele>1387</ele>
        <time>2018-03-05T12:47:55Z</time>
      </trkpt>
      <trkpt lat="42.98501" lon="0.31487">
        <ele>1386</ele>
        <time>2018-03-05T12:47:56Z</time>
      </trkpt>
      <trkpt lat="42.98504" lon="0.31484">
        <ele>1386</ele>
        <time>2018-03-05T12:47:57Z</time>
      </trkpt>
      <trkpt lat="42.98504" lon="0.31478">
        <ele>1384</ele>
        <time>2018-03-05T12:47:58Z</time>
      </trkpt>
      <trkpt lat="42.98503" lon="0.31474">
        <ele>1383</ele>
        <time>2018-03-05T12:47:59Z</time>
      </trkpt>
      <trkpt lat="42.98506" lon="0.31471">
        <ele>1382</ele>
        <time>2018-03-05T12:48:00Z</time>
      </trkpt>
      <trkpt lat="42.98509" lon="0.31467">
        <ele>1381</ele>
        <time>2018-03-05T12:48:02Z</time>
      </trkpt>
      <trkpt lat="42.98505" lon="0.31461">
        <ele>1380</ele>
        <time>2018-03-05T12:48:04Z</time>
      </trkpt>
      <trkpt lat="42.98506" lon="0.31457">
        <ele>1379</ele>
        <time>2018-03-05T12:48:05Z</time>
      </trkpt>
      <trkpt lat="42.98508" lon="0.31454">
        <ele>1378</ele>
        <time>2018-03-05T12:48:06Z</time>
      </trkpt>
      <trkpt lat="42.98508" lon="0.31449">
        <ele>1377</ele>
        <time>2018-03-05T12:48:07Z</time>
      </trkpt>
      <trkpt lat="42.98506" lon="0.31445">
        <ele>1378</ele>
        <time>2018-03-05T12:48:08Z</time>
      </trkpt>
      <trkpt lat="42.98506" lon="0.31441">
        <ele>1377</ele>
        <time>2018-03-05T12:48:09Z</time>
      </trkpt>
      <trkpt lat="42.98509" lon="0.31438">
        <ele>1375</ele>
        <time>2018-03-05T12:48:10Z</time>
      </trkpt>
      <trkpt lat="42.98511" lon="0.31434">
        <ele>1375</ele>
        <time>2018-03-05T12:48:11Z</time>
      </trkpt>
      <trkpt lat="42.98509" lon="0.3143">
        <ele>1373</ele>
        <time>2018-03-05T12:48:12Z</time>
      </trkpt>
      <trkpt lat="42.9851" lon="0.31425">
        <ele>1371</ele>
        <time>2018-03-05T12:48:13Z</time>
      </trkpt>
      <trkpt lat="42.98516" lon="0.3142">
        <ele>1369</ele>
        <time>2018-03-05T12:48:15Z</time>
      </trkpt>
      <trkpt lat="42.98516" lon="0.31415">
        <ele>1367</ele>
        <time>2018-03-05T12:48:16Z</time>
      </trkpt>
      <trkpt lat="42.98513" lon="0.3141">
        <ele>1365</ele>
        <time>2018-03-05T12:48:27Z</time>
      </trkpt>
      <trkpt lat="42.98514" lon="0.31406">
        <ele>1364</ele>
        <time>2018-03-05T12:48:28Z</time>
      </trkpt>
      <trkpt lat="42.98518" lon="0.314">
        <ele>1362</ele>
        <time>2018-03-05T12:48:30Z</time>
      </trkpt>
      <trkpt lat="42.98521" lon="0.31392">
        <ele>1360</ele>
        <time>2018-03-05T12:48:32Z</time>
      </trkpt>
      <trkpt lat="42.98523" lon="0.31388">
        <ele>1359</ele>
        <time>2018-03-05T12:48:33Z</time>
      </trkpt>
      <trkpt lat="42.98523" lon="0.31383">
        <ele>1358</ele>
        <time>2018-03-05T12:48:34Z</time>
      </trkpt>
      <trkpt lat="42.98522" lon="0.31379">
        <ele>1356</ele>
        <time>2018-03-05T12:48:35Z</time>
      </trkpt>
      <trkpt lat="42.98524" lon="0.31374">
        <ele>1354</ele>
        <time>2018-03-05T12:48:36Z</time>
      </trkpt>
      <trkpt lat="42.98525" lon="0.3137">
        <ele>1354</ele>
        <time>2018-03-05T12:48:37Z</time>
      </trkpt>
      <trkpt lat="42.98523" lon="0.31366">
        <ele>1352</ele>
        <time>2018-03-05T12:48:38Z</time>
      </trkpt>
      <trkpt lat="42.98523" lon="0.31362">
        <ele>1351</ele>
        <time>2018-03-05T12:48:39Z</time>
      </trkpt>
      <trkpt lat="42.98524" lon="0.31356">
        <ele>1349</ele>
        <time>2018-03-05T12:48:40Z</time>
      </trkpt>
      <trkpt lat="42.98522" lon="0.3135">
        <ele>1347</ele>
        <time>2018-03-05T12:48:41Z</time>
      </trkpt>
      <trkpt lat="42.98526" lon="0.31335">
        <ele>1343</ele>
        <time>2018-03-05T12:48:44Z</time>
      </trkpt>
      <trkpt lat="42.98529" lon="0.31332">
        <ele>1342</ele>
        <time>2018-03-05T12:48:45Z</time>
      </trkpt>
      <trkpt lat="42.98533" lon="0.31322">
        <ele>1336</ele>
        <time>2018-03-05T12:49:02Z</time>
      </trkpt>
      <trkpt lat="42.98534" lon="0.31318">
        <ele>1336</ele>
        <time>2018-03-05T12:49:16Z</time>
      </trkpt>
      <trkpt lat="42.98534" lon="0.31314">
        <ele>1335</ele>
        <time>2018-03-05T12:49:28Z</time>
      </trkpt>
      <trkpt lat="42.98537" lon="0.31312">
        <ele>1334</ele>
        <time>2018-03-05T12:49:34Z</time>
      </trkpt>
      <trkpt lat="42.98538" lon="0.31309">
        <ele>1333</ele>
        <time>2018-03-05T12:49:53Z</time>
      </trkpt>
      <trkpt lat="42.98539" lon="0.31304">
        <ele>1331</ele>
        <time>2018-03-05T12:50:04Z</time>
      </trkpt>
      <trkpt lat="42.98541" lon="0.31302">
        <ele>1330</ele>
        <time>2018-03-05T12:50:07Z</time>
      </trkpt>
      <trkpt lat="42.98543" lon="0.31297">
        <ele>1329</ele>
        <time>2018-03-05T12:50:09Z</time>
      </trkpt>
      <trkpt lat="42.98544" lon="0.31287">
        <ele>1327</ele>
        <time>2018-03-05T12:50:30Z</time>
      </trkpt>
      <trkpt lat="42.9854" lon="0.31276">
        <ele>1325</ele>
        <time>2018-03-05T12:50:56Z</time>
      </trkpt>
      <trkpt lat="42.98538" lon="0.31274">
        <ele>1324</ele>
        <time>2018-03-05T12:51:06Z</time>
      </trkpt>
      <trkpt lat="42.98532" lon="0.31257">
        <ele>1323</ele>
        <time>2018-03-05T12:51:16Z</time>
      </trkpt>
      <trkpt lat="42.98528" lon="0.31251">
        <ele>1322</ele>
        <time>2018-03-05T12:51:20Z</time>
      </trkpt>
      <trkpt lat="42.98525" lon="0.31244">
        <ele>1321</ele>
        <time>2018-03-05T12:51:24Z</time>
      </trkpt>
      <trkpt lat="42.98523" lon="0.3124">
        <ele>1320</ele>
        <time>2018-03-05T12:51:25Z</time>
      </trkpt>
      <trkpt lat="42.98522" lon="0.31236">
        <ele>1320</ele>
        <time>2018-03-05T12:51:51Z</time>
      </trkpt>
      <trkpt lat="42.98521" lon="0.31233">
        <ele>1318</ele>
        <time>2018-03-05T12:51:58Z</time>
      </trkpt>
      <trkpt lat="42.98519" lon="0.31228">
        <ele>1317</ele>
        <time>2018-03-05T12:52:00Z</time>
      </trkpt>
      <trkpt lat="42.98521" lon="0.31225">
        <ele>1314</ele>
        <time>2018-03-05T12:52:18Z</time>
      </trkpt>
      <trkpt lat="42.98519" lon="0.31222">
        <ele>1311</ele>
        <time>2018-03-05T12:52:33Z</time>
      </trkpt>
      <trkpt lat="42.98515" lon="0.31218">
        <ele>1309</ele>
        <time>2018-03-05T12:52:43Z</time>
      </trkpt>
      <trkpt lat="42.9851" lon="0.31212">
        <ele>1307</ele>
        <time>2018-03-05T12:52:49Z</time>
      </trkpt>
      <trkpt lat="42.98513" lon="0.31211">
        <ele>1307</ele>
        <time>2018-03-05T12:53:01Z</time>
      </trkpt>
      <trkpt lat="42.98515" lon="0.31208">
        <ele>1305</ele>
        <time>2018-03-05T12:53:26Z</time>
      </trkpt>
      <trkpt lat="42.98511" lon="0.31201">
        <ele>1302</ele>
        <time>2018-03-05T12:53:37Z</time>
      </trkpt>
      <trkpt lat="42.98502" lon="0.31198">
        <ele>1299</ele>
        <time>2018-03-05T12:53:49Z</time>
      </trkpt>
      <trkpt lat="42.98506" lon="0.31199">
        <ele>1302</ele>
        <time>2018-03-05T12:54:13Z</time>
      </trkpt>
      <trkpt lat="42.98517" lon="0.31195">
        <ele>1304</ele>
        <time>2018-03-05T12:54:22Z</time>
      </trkpt>
      <trkpt lat="42.98523" lon="0.31194">
        <ele>1306</ele>
        <time>2018-03-05T12:54:36Z</time>
      </trkpt>
      <trkpt lat="42.98523" lon="0.3119">
        <ele>1305</ele>
        <time>2018-03-05T12:54:49Z</time>
      </trkpt>
      <trkpt lat="42.98522" lon="0.31188">
        <ele>1295</ele>
        <time>2018-03-05T12:56:54Z</time>
      </trkpt>
      <trkpt lat="42.98518" lon="0.31186">
        <ele>1294</ele>
        <time>2018-03-05T12:56:59Z</time>
      </trkpt>
      <trkpt lat="42.98515" lon="0.31183">
        <ele>1292</ele>
        <time>2018-03-05T12:57:06Z</time>
      </trkpt>
      <trkpt lat="42.98514" lon="0.31179">
        <ele>1292</ele>
        <time>2018-03-05T12:57:11Z</time>
      </trkpt>
      <trkpt lat="42.98524" lon="0.31177">
        <ele>1291</ele>
        <time>2018-03-05T12:57:43Z</time>
      </trkpt>
      <trkpt lat="42.98527" lon="0.31176">
        <ele>1294</ele>
        <time>2018-03-05T12:58:02Z</time>
      </trkpt>
      <trkpt lat="42.98529" lon="0.31174">
        <ele>1293</ele>
        <time>2018-03-05T12:58:10Z</time>
      </trkpt>
      <trkpt lat="42.98531" lon="0.3117">
        <ele>1291</ele>
        <time>2018-03-05T12:58:14Z</time>
      </trkpt>
      <trkpt lat="42.98536" lon="0.31167">
        <ele>1289</ele>
        <time>2018-03-05T12:58:18Z</time>
      </trkpt>
      <trkpt lat="42.98534" lon="0.31161">
        <ele>1287</ele>
        <time>2018-03-05T12:58:20Z</time>
      </trkpt>
      <trkpt lat="42.98534" lon="0.31156">
        <ele>1286</ele>
        <time>2018-03-05T12:58:22Z</time>
      </trkpt>
      <trkpt lat="42.98537" lon="0.31151">
        <ele>1286</ele>
        <time>2018-03-05T12:58:24Z</time>
      </trkpt>
      <trkpt lat="42.98545" lon="0.31137">
        <ele>1285</ele>
        <time>2018-03-05T12:58:29Z</time>
      </trkpt>
      <trkpt lat="42.98546" lon="0.31133">
        <ele>1286</ele>
        <time>2018-03-05T12:58:31Z</time>
      </trkpt>
      <trkpt lat="42.98549" lon="0.31128">
        <ele>1284</ele>
        <time>2018-03-05T12:58:39Z</time>
      </trkpt>
      <trkpt lat="42.98554" lon="0.31129">
        <ele>1281</ele>
        <time>2018-03-05T12:58:41Z</time>
      </trkpt>
      <trkpt lat="42.98557" lon="0.31125">
        <ele>1278</ele>
        <time>2018-03-05T12:58:43Z</time>
      </trkpt>
      <trkpt lat="42.98561" lon="0.31123">
        <ele>1277</ele>
        <time>2018-03-05T12:58:45Z</time>
      </trkpt>
      <trkpt lat="42.98564" lon="0.31121">
        <ele>1275</ele>
        <time>2018-03-05T12:58:47Z</time>
      </trkpt>
      <trkpt lat="42.98567" lon="0.31124">
        <ele>1275</ele>
        <time>2018-03-05T12:58:49Z</time>
      </trkpt>
      <trkpt lat="42.98569" lon="0.31121">
        <ele>1273</ele>
        <time>2018-03-05T12:58:50Z</time>
      </trkpt>
      <trkpt lat="42.98571" lon="0.31119">
        <ele>1271</ele>
        <time>2018-03-05T12:59:02Z</time>
      </trkpt>
      <trkpt lat="42.98574" lon="0.31117">
        <ele>1270</ele>
        <time>2018-03-05T12:59:09Z</time>
      </trkpt>
      <trkpt lat="42.98576" lon="0.31114">
        <ele>1269</ele>
        <time>2018-03-05T12:59:24Z</time>
      </trkpt>
      <trkpt lat="42.98579" lon="0.31113">
        <ele>1268</ele>
        <time>2018-03-05T12:59:34Z</time>
      </trkpt>
      <trkpt lat="42.98583" lon="0.31108">
        <ele>1264</ele>
        <time>2018-03-05T12:59:54Z</time>
      </trkpt>
      <trkpt lat="42.98578" lon="0.31091">
        <ele>1261</ele>
        <time>2018-03-05T12:59:59Z</time>
      </trkpt>
      <trkpt lat="42.9858" lon="0.31081">
        <ele>1260</ele>
        <time>2018-03-05T13:00:02Z</time>
      </trkpt>
      <trkpt lat="42.98578" lon="0.31078">
        <ele>1259</ele>
        <time>2018-03-05T13:00:05Z</time>
      </trkpt>
      <trkpt lat="42.98582" lon="0.31073">
        <ele>1257</ele>
        <time>2018-03-05T13:00:08Z</time>
      </trkpt>
      <trkpt lat="42.98584" lon="0.31067">
        <ele>1257</ele>
        <time>2018-03-05T13:00:10Z</time>
      </trkpt>
      <trkpt lat="42.98588" lon="0.31064">
        <ele>1255</ele>
        <time>2018-03-05T13:00:12Z</time>
      </trkpt>
      <trkpt lat="42.98593" lon="0.31068">
        <ele>1254</ele>
        <time>2018-03-05T13:00:14Z</time>
      </trkpt>
      <trkpt lat="42.98597" lon="0.31066">
        <ele>1252</ele>
        <time>2018-03-05T13:00:15Z</time>
      </trkpt>
      <trkpt lat="42.98599" lon="0.31063">
        <ele>1251</ele>
        <time>2018-03-05T13:00:16Z</time>
      </trkpt>
      <trkpt lat="42.98598" lon="0.31055">
        <ele>1250</ele>
        <time>2018-03-05T13:00:18Z</time>
      </trkpt>
      <trkpt lat="42.98602" lon="0.31054">
        <ele>1249</ele>
        <time>2018-03-05T13:00:20Z</time>
      </trkpt>
      <trkpt lat="42.98605" lon="0.31051">
        <ele>1247</ele>
        <time>2018-03-05T13:00:21Z</time>
      </trkpt>
      <trkpt lat="42.98606" lon="0.31043">
        <ele>1246</ele>
        <time>2018-03-05T13:00:23Z</time>
      </trkpt>
      <trkpt lat="42.9861" lon="0.31042">
        <ele>1244</ele>
        <time>2018-03-05T13:00:25Z</time>
      </trkpt>
      <trkpt lat="42.98612" lon="0.31045">
        <ele>1242</ele>
        <time>2018-03-05T13:01:02Z</time>
      </trkpt>
      <trkpt lat="42.98613" lon="0.31044">
        <ele>1242</ele>
        <time>2018-03-05T13:01:41Z</time>
      </trkpt>
      <trkpt lat="42.98615" lon="0.31045">
        <ele>1246</ele>
        <time>2018-03-05T13:06:44Z</time>
      </trkpt>
      <trkpt lat="42.98618" lon="0.31047">
        <ele>1247</ele>
        <time>2018-03-05T13:06:49Z</time>
      </trkpt>
      <trkpt lat="42.9862" lon="0.3105">
        <ele>1246</ele>
        <time>2018-03-05T13:07:03Z</time>
      </trkpt>
      <trkpt lat="42.98632" lon="0.31064">
        <ele>1241</ele>
        <time>2018-03-05T13:07:25Z</time>
      </trkpt>
      <trkpt lat="42.98633" lon="0.31068">
        <ele>1241</ele>
        <time>2018-03-05T13:07:29Z</time>
      </trkpt>
      <trkpt lat="42.98639" lon="0.31073">
        <ele>1241</ele>
        <time>2018-03-05T13:07:37Z</time>
      </trkpt>
      <trkpt lat="42.98642" lon="0.31074">
        <ele>1242</ele>
        <time>2018-03-05T13:07:42Z</time>
      </trkpt>
      <trkpt lat="42.98645" lon="0.31074">
        <ele>1243</ele>
        <time>2018-03-05T13:07:47Z</time>
      </trkpt>
      <trkpt lat="42.98648" lon="0.31074">
        <ele>1243</ele>
        <time>2018-03-05T13:07:52Z</time>
      </trkpt>
      <trkpt lat="42.98652" lon="0.31078">
        <ele>1244</ele>
        <time>2018-03-05T13:08:17Z</time>
      </trkpt>
      <trkpt lat="42.98655" lon="0.3108">
        <ele>1244</ele>
        <time>2018-03-05T13:08:22Z</time>
      </trkpt>
      <trkpt lat="42.98656" lon="0.31083">
        <ele>1245</ele>
        <time>2018-03-05T13:08:26Z</time>
      </trkpt>
      <trkpt lat="42.98659" lon="0.31082">
        <ele>1245</ele>
        <time>2018-03-05T13:08:33Z</time>
      </trkpt>
      <trkpt lat="42.98665" lon="0.31085">
        <ele>1248</ele>
        <time>2018-03-05T13:08:47Z</time>
      </trkpt>
      <trkpt lat="42.98671" lon="0.31085">
        <ele>1250</ele>
        <time>2018-03-05T13:08:59Z</time>
      </trkpt>
      <trkpt lat="42.98681" lon="0.31096">
        <ele>1252</ele>
        <time>2018-03-05T13:09:10Z</time>
      </trkpt>
      <trkpt lat="42.98687" lon="0.31097">
        <ele>1253</ele>
        <time>2018-03-05T13:09:19Z</time>
      </trkpt>
      <trkpt lat="42.98693" lon="0.31096">
        <ele>1257</ele>
        <time>2018-03-05T13:09:26Z</time>
      </trkpt>
      <trkpt lat="42.98697" lon="0.31097">
        <ele>1258</ele>
        <time>2018-03-05T13:09:31Z</time>
      </trkpt>
      <trkpt lat="42.98701" lon="0.311">
        <ele>1257</ele>
        <time>2018-03-05T13:09:47Z</time>
      </trkpt>
      <trkpt lat="42.98702" lon="0.31101">
        <ele>1250</ele>
        <time>2018-03-05T13:10:15Z</time>
      </trkpt>
      <trkpt lat="42.98705" lon="0.31101">
        <ele>1248</ele>
        <time>2018-03-05T13:10:28Z</time>
      </trkpt>
      <trkpt lat="42.98706" lon="0.31105">
        <ele>1248</ele>
        <time>2018-03-05T13:10:56Z</time>
      </trkpt>
      <trkpt lat="42.98709" lon="0.31105">
        <ele>1247</ele>
        <time>2018-03-05T13:11:00Z</time>
      </trkpt>
      <trkpt lat="42.98719" lon="0.31105">
        <ele>1247</ele>
        <time>2018-03-05T13:11:12Z</time>
      </trkpt>
      <trkpt lat="42.98729" lon="0.31104">
        <ele>1250</ele>
        <time>2018-03-05T13:11:25Z</time>
      </trkpt>
      <trkpt lat="42.98732" lon="0.31104">
        <ele>1251</ele>
        <time>2018-03-05T13:11:29Z</time>
      </trkpt>
      <trkpt lat="42.98735" lon="0.31103">
        <ele>1251</ele>
        <time>2018-03-05T13:11:34Z</time>
      </trkpt>
      <trkpt lat="42.98748" lon="0.31102">
        <ele>1251</ele>
        <time>2018-03-05T13:11:49Z</time>
      </trkpt>
      <trkpt lat="42.98755" lon="0.31101">
        <ele>1253</ele>
        <time>2018-03-05T13:11:56Z</time>
      </trkpt>
      <trkpt lat="42.98764" lon="0.31103">
        <ele>1255</ele>
        <time>2018-03-05T13:12:07Z</time>
      </trkpt>
      <trkpt lat="42.9877" lon="0.31106">
        <ele>1253</ele>
        <time>2018-03-05T13:12:17Z</time>
      </trkpt>
      <trkpt lat="42.98773" lon="0.31108">
        <ele>1253</ele>
        <time>2018-03-05T13:12:20Z</time>
      </trkpt>
      <trkpt lat="42.98774" lon="0.31113">
        <ele>1252</ele>
        <time>2018-03-05T13:12:24Z</time>
      </trkpt>
      <trkpt lat="42.98777" lon="0.31125">
        <ele>1250</ele>
        <time>2018-03-05T13:12:38Z</time>
      </trkpt>
      <trkpt lat="42.98778" lon="0.31128">
        <ele>1250</ele>
        <time>2018-03-05T13:12:41Z</time>
      </trkpt>
      <trkpt lat="42.98778" lon="0.31134">
        <ele>1250</ele>
        <time>2018-03-05T13:12:44Z</time>
      </trkpt>
      <trkpt lat="42.9878" lon="0.31157">
        <ele>1252</ele>
        <time>2018-03-05T13:13:04Z</time>
      </trkpt>
      <trkpt lat="42.98781" lon="0.31161">
        <ele>1253</ele>
        <time>2018-03-05T13:13:07Z</time>
      </trkpt>
      <trkpt lat="42.98784" lon="0.31173">
        <ele>1253</ele>
        <time>2018-03-05T13:13:17Z</time>
      </trkpt>
      <trkpt lat="42.98793" lon="0.312">
        <ele>1255</ele>
        <time>2018-03-05T13:13:49Z</time>
      </trkpt>
      <trkpt lat="42.98796" lon="0.31204">
        <ele>1257</ele>
        <time>2018-03-05T13:13:55Z</time>
      </trkpt>
      <trkpt lat="42.98799" lon="0.31212">
        <ele>1294</ele>
        <time>2018-03-05T13:14:02Z</time>
      </trkpt>
      <trkpt lat="42.98801" lon="0.31219">
        <ele>1271</ele>
        <time>2018-03-05T13:14:11Z</time>
      </trkpt>
      <trkpt lat="42.98803" lon="0.31227">
        <ele>1260</ele>
        <time>2018-03-05T13:14:20Z</time>
      </trkpt>
      <trkpt lat="42.98804" lon="0.3123">
        <ele>1255</ele>
        <time>2018-03-05T13:14:24Z</time>
      </trkpt>
      <trkpt lat="42.98807" lon="0.31238">
        <ele>1252</ele>
        <time>2018-03-05T13:14:38Z</time>
      </trkpt>
      <trkpt lat="42.98811" lon="0.31249">
        <ele>1251</ele>
        <time>2018-03-05T13:15:00Z</time>
      </trkpt>
      <trkpt lat="42.9881" lon="0.31253">
        <ele>1252</ele>
        <time>2018-03-05T13:15:11Z</time>
      </trkpt>
      <trkpt lat="42.98808" lon="0.31256">
        <ele>1252</ele>
        <time>2018-03-05T13:15:29Z</time>
      </trkpt>
      <trkpt lat="42.98812" lon="0.31271">
        <ele>1249</ele>
        <time>2018-03-05T13:15:57Z</time>
      </trkpt>
      <trkpt lat="42.98822" lon="0.31274">
        <ele>1244</ele>
        <time>2018-03-05T13:16:33Z</time>
      </trkpt>
      <trkpt lat="42.98827" lon="0.31279">
        <ele>1240</ele>
        <time>2018-03-05T13:16:40Z</time>
      </trkpt>
      <trkpt lat="42.98828" lon="0.31283">
        <ele>1238</ele>
        <time>2018-03-05T13:16:44Z</time>
      </trkpt>
      <trkpt lat="42.98832" lon="0.31291">
        <ele>1237</ele>
        <time>2018-03-05T13:16:57Z</time>
      </trkpt>
      <trkpt lat="42.98841" lon="0.31304">
        <ele>1236</ele>
        <time>2018-03-05T13:17:21Z</time>
      </trkpt>
      <trkpt lat="42.98848" lon="0.31318">
        <ele>1232</ele>
        <time>2018-03-05T13:17:37Z</time>
      </trkpt>
      <trkpt lat="42.98858" lon="0.31335">
        <ele>1230</ele>
        <time>2018-03-05T13:17:54Z</time>
      </trkpt>
      <trkpt lat="42.98862" lon="0.3134">
        <ele>1228</ele>
        <time>2018-03-05T13:18:02Z</time>
      </trkpt>
      <trkpt lat="42.98865" lon="0.31341">
        <ele>1227</ele>
        <time>2018-03-05T13:18:05Z</time>
      </trkpt>
      <trkpt lat="42.98868" lon="0.31341">
        <ele>1227</ele>
        <time>2018-03-05T13:18:08Z</time>
      </trkpt>
      <trkpt lat="42.98877" lon="0.31344">
        <ele>1231</ele>
        <time>2018-03-05T13:18:18Z</time>
      </trkpt>
      <trkpt lat="42.98879" lon="0.31348">
        <ele>1232</ele>
        <time>2018-03-05T13:18:21Z</time>
      </trkpt>
      <trkpt lat="42.98882" lon="0.31355">
        <ele>1231</ele>
        <time>2018-03-05T13:18:24Z</time>
      </trkpt>
      <trkpt lat="42.98885" lon="0.31356">
        <ele>1230</ele>
        <time>2018-03-05T13:18:29Z</time>
      </trkpt>
      <trkpt lat="42.98888" lon="0.31356">
        <ele>1233</ele>
        <time>2018-03-05T13:18:33Z</time>
      </trkpt>
      <trkpt lat="42.9889" lon="0.31358">
        <ele>1234</ele>
        <time>2018-03-05T13:18:39Z</time>
      </trkpt>
      <trkpt lat="42.98895" lon="0.31364">
        <ele>1238</ele>
        <time>2018-03-05T13:18:46Z</time>
      </trkpt>
      <trkpt lat="42.989" lon="0.31379">
        <ele>1241</ele>
        <time>2018-03-05T13:19:00Z</time>
      </trkpt>
      <trkpt lat="42.98901" lon="0.31383">
        <ele>1243</ele>
        <time>2018-03-05T13:19:03Z</time>
      </trkpt>
      <trkpt lat="42.98904" lon="0.31399">
        <ele>1240</ele>
        <time>2018-03-05T13:19:13Z</time>
      </trkpt>
      <trkpt lat="42.98906" lon="0.31422">
        <ele>1238</ele>
        <time>2018-03-05T13:19:28Z</time>
      </trkpt>
      <trkpt lat="42.98917" lon="0.31458">
        <ele>1238</ele>
        <time>2018-03-05T13:19:58Z</time>
      </trkpt>
      <trkpt lat="42.98924" lon="0.31477">
        <ele>1237</ele>
        <time>2018-03-05T13:20:12Z</time>
      </trkpt>
      <trkpt lat="42.98927" lon="0.31486">
        <ele>1236</ele>
        <time>2018-03-05T13:20:20Z</time>
      </trkpt>
      <trkpt lat="42.98935" lon="0.31495">
        <ele>1237</ele>
        <time>2018-03-05T13:20:28Z</time>
      </trkpt>
      <trkpt lat="42.98937" lon="0.31498">
        <ele>1237</ele>
        <time>2018-03-05T13:20:32Z</time>
      </trkpt>
      <trkpt lat="42.98948" lon="0.31508">
        <ele>1237</ele>
        <time>2018-03-05T13:20:46Z</time>
      </trkpt>
      <trkpt lat="42.98958" lon="0.31519">
        <ele>1238</ele>
        <time>2018-03-05T13:21:00Z</time>
      </trkpt>
      <trkpt lat="42.98969" lon="0.31526">
        <ele>1240</ele>
        <time>2018-03-05T13:21:13Z</time>
      </trkpt>
      <trkpt lat="42.98985" lon="0.31531">
        <ele>1242</ele>
        <time>2018-03-05T13:21:30Z</time>
      </trkpt>
      <trkpt lat="42.98993" lon="0.31539">
        <ele>1242</ele>
        <time>2018-03-05T13:21:38Z</time>
      </trkpt>
      <trkpt lat="42.99002" lon="0.3154">
        <ele>1245</ele>
        <time>2018-03-05T13:21:46Z</time>
      </trkpt>
      <trkpt lat="42.99014" lon="0.3155">
        <ele>1244</ele>
        <time>2018-03-05T13:21:57Z</time>
      </trkpt>
      <trkpt lat="42.99022" lon="0.31557">
        <ele>1241</ele>
        <time>2018-03-05T13:22:06Z</time>
      </trkpt>
      <trkpt lat="42.99026" lon="0.31564">
        <ele>1240</ele>
        <time>2018-03-05T13:22:13Z</time>
      </trkpt>
      <trkpt lat="42.99029" lon="0.31566">
        <ele>1240</ele>
        <time>2018-03-05T13:22:16Z</time>
      </trkpt>
      <trkpt lat="42.99046" lon="0.31594">
        <ele>1241</ele>
        <time>2018-03-05T13:22:46Z</time>
      </trkpt>
      <trkpt lat="42.99048" lon="0.31597">
        <ele>1241</ele>
        <time>2018-03-05T13:22:50Z</time>
      </trkpt>
      <trkpt lat="42.9905" lon="0.31599">
        <ele>1240</ele>
        <time>2018-03-05T13:22:54Z</time>
      </trkpt>
      <trkpt lat="42.9906" lon="0.31611">
        <ele>1240</ele>
        <time>2018-03-05T13:23:09Z</time>
      </trkpt>
      <trkpt lat="42.99065" lon="0.31615">
        <ele>1240</ele>
        <time>2018-03-05T13:23:16Z</time>
      </trkpt>
      <trkpt lat="42.99067" lon="0.31619">
        <ele>1241</ele>
        <time>2018-03-05T13:23:20Z</time>
      </trkpt>
      <trkpt lat="42.9907" lon="0.31623">
        <ele>1241</ele>
        <time>2018-03-05T13:23:24Z</time>
      </trkpt>
      <trkpt lat="42.99073" lon="0.31625">
        <ele>1242</ele>
        <time>2018-03-05T13:23:28Z</time>
      </trkpt>
      <trkpt lat="42.99094" lon="0.31647">
        <ele>1242</ele>
        <time>2018-03-05T13:23:58Z</time>
      </trkpt>
      <trkpt lat="42.99106" lon="0.31662">
        <ele>1243</ele>
        <time>2018-03-05T13:24:13Z</time>
      </trkpt>
      <trkpt lat="42.99112" lon="0.31671">
        <ele>1244</ele>
        <time>2018-03-05T13:24:22Z</time>
      </trkpt>
      <trkpt lat="42.99118" lon="0.31675">
        <ele>1244</ele>
        <time>2018-03-05T13:24:28Z</time>
      </trkpt>
      <trkpt lat="42.99121" lon="0.31677">
        <ele>1244</ele>
        <time>2018-03-05T13:24:31Z</time>
      </trkpt>
      <trkpt lat="42.99123" lon="0.31679">
        <ele>1244</ele>
        <time>2018-03-05T13:24:34Z</time>
      </trkpt>
      <trkpt lat="42.99125" lon="0.31683">
        <ele>1243</ele>
        <time>2018-03-05T13:24:38Z</time>
      </trkpt>
      <trkpt lat="42.99138" lon="0.31695">
        <ele>1243</ele>
        <time>2018-03-05T13:24:54Z</time>
      </trkpt>
      <trkpt lat="42.99144" lon="0.31702">
        <ele>1243</ele>
        <time>2018-03-05T13:25:05Z</time>
      </trkpt>
      <trkpt lat="42.99147" lon="0.31701">
        <ele>1244</ele>
        <time>2018-03-05T13:25:38Z</time>
      </trkpt>
    </trkseg>
  </trk>
</gpx>